<?xml version="1.0" encoding="UTF-8" standalone="no" ?>
<gpx xmlns="http://www.topografix.com/GPX/1/1" xmlns:xsi="http://www.w3.org/2001/XMLSchema-instance" xsi:schemaLocation="http://www.topografix.com/GPX/1/1 http://www.topografix.com/GPX/1/1/gpx.xsd" version="1.1" creator="VisuGPX - https://www.visugpx.com">
  <metadata>
    <name>Le Grand Brouis panoramique</name>
    <desc><![CDATA[Le Grand Brouis panoramique]]></desc>
  </metadata>
  <wpt lat="43.74999" lon="6.63005">
    <ele>1075.89</ele>
    <name><![CDATA[0000238]]></name>
    <desc><![CDATA[]]></desc>
    <type><![CDATA[Point de départ]]></type>
  </wpt>
  <wpt lat="43.7548" lon="6.60376">
    <ele>1220.3</ele>
    <name><![CDATA[0000239]]></name>
    <desc><![CDATA[]]></desc>
    <type><![CDATA[Point de navigation]]></type>
  </wpt>
  <wpt lat="43.75205" lon="6.601">
    <ele>1271.27</ele>
    <name><![CDATA[0000240]]></name>
    <desc><![CDATA[]]></desc>
    <type><![CDATA[Photo]]></type>
  </wpt>
  <wpt lat="43.75775" lon="6.61866">
    <ele>1286.37</ele>
    <name><![CDATA[0000241]]></name>
    <desc><![CDATA[]]></desc>
    <type><![CDATA[Point de navigation]]></type>
  </wpt>
  <wpt lat="43.75157" lon="6.62803">
    <ele>1083.57</ele>
    <name><![CDATA[0000242]]></name>
    <desc><![CDATA[<br /><h3>Nom: Segment 1</h3><br /><p>Temps de départ: 07/28/2013 10:02</p><p>Temps d'arrivée: 07/28/2013 14:40</p><p>Distance: 9,7 km (04:38)</p><p>Temps déplacement: 03:04</p><p>Vitesse moyenne: 2,1 km/h</p><p>Vitesse moyenne: 3,1 km/h</p><p>Vitess Max.: 7,6 km/h</p><p>Altitude minimale: 1067 m</p><p>Altitude maximale: 1291 m</p><p>Vitesse d'élévation: 186,3 m/h</p><p>Vitesse de descente: -172,5 m/h</p><p>Gain Altitude: 272 m</p><p>Perte Altitude: -265 m</p><p>Temps d'élévation: 01:27</p><p>Temps de descente: 01:32</p>]]></desc>
    <type><![CDATA[Point d'arrivée]]></type>
  </wpt>
  <trk>
    <name><![CDATA[Brouis ]]></name>
    <desc><![CDATA[<h1>OruxMaps</h1><br /><hr align="center" width="480" style="height: 2px; width: 517px"/><h2>Nom: Brouis </h2><br /><p>Temps de départ: 07/28/2013 10:02</p><p>Temps d'arrivée: 07/28/2013 14:40</p><p>Distance: 9,7 km (04:38)</p><p>Temps déplacement: 03:04</p><p>Vitesse moyenne: 2,1 km/h</p><p>Vitesse moyenne: 3,1 km/h</p><p>Vitess Max.: 7,6 km/h</p><p>Altitude minimale: 1067 m</p><p>Altitude maximale: 1291 m</p><p>Vitesse d'élévation: 186,3 m/h</p><p>Vitesse de descente: -172,5 m/h</p><p>Gain Altitude: 272 m</p><p>Perte Altitude: -265 m</p><p>Temps d'élévation: 01:27</p><p>Temps de descente: 01:32</p><hr align="center" width="480" style="height: 2px; width: 517px"/>]]></desc>
    <trkseg>
      <trkpt lat="43.74999" lon="6.63005">
        <ele>1075.89</ele>
        <time>2013-07-28T08:02:14Z</time>
      </trkpt>
      <trkpt lat="43.75007" lon="6.63015">
        <ele>1070.7</ele>
        <time>2013-07-28T08:02:23Z</time>
      </trkpt>
      <trkpt lat="43.75015" lon="6.63024">
        <ele>1067.55</ele>
        <time>2013-07-28T08:02:50Z</time>
      </trkpt>
      <trkpt lat="43.75007" lon="6.63017">
        <ele>1067.76</ele>
        <time>2013-07-28T08:04:59Z</time>
      </trkpt>
      <trkpt lat="43.75015" lon="6.63008">
        <ele>1069.48</ele>
        <time>2013-07-28T08:09:29Z</time>
      </trkpt>
      <trkpt lat="43.75019" lon="6.62996">
        <ele>1069.22</ele>
        <time>2013-07-28T08:09:50Z</time>
      </trkpt>
      <trkpt lat="43.75027" lon="6.6299">
        <ele>1068.41</ele>
        <time>2013-07-28T08:10:38Z</time>
      </trkpt>
      <trkpt lat="43.75028" lon="6.62975">
        <ele>1068.33</ele>
        <time>2013-07-28T08:10:50Z</time>
      </trkpt>
      <trkpt lat="43.75034" lon="6.62957">
        <ele>1068.28</ele>
        <time>2013-07-28T08:11:07Z</time>
      </trkpt>
      <trkpt lat="43.75042" lon="6.62949">
        <ele>1068.22</ele>
        <time>2013-07-28T08:11:23Z</time>
      </trkpt>
      <trkpt lat="43.75051" lon="6.62941">
        <ele>1068.23</ele>
        <time>2013-07-28T08:11:35Z</time>
      </trkpt>
      <trkpt lat="43.75062" lon="6.62924">
        <ele>1068.23</ele>
        <time>2013-07-28T08:11:54Z</time>
      </trkpt>
      <trkpt lat="43.75064" lon="6.6291">
        <ele>1068.22</ele>
        <time>2013-07-28T08:12:09Z</time>
      </trkpt>
      <trkpt lat="43.75068" lon="6.62897">
        <ele>1068.18</ele>
        <time>2013-07-28T08:12:27Z</time>
      </trkpt>
      <trkpt lat="43.75073" lon="6.62886">
        <ele>1068.12</ele>
        <time>2013-07-28T08:12:39Z</time>
      </trkpt>
      <trkpt lat="43.75084" lon="6.62881">
        <ele>1069.56</ele>
        <time>2013-07-28T08:15:04Z</time>
      </trkpt>
      <trkpt lat="43.75162" lon="6.62701">
        <ele>1071.32</ele>
        <time>2013-07-28T08:19:11Z</time>
      </trkpt>
      <trkpt lat="43.75164" lon="6.62687">
        <ele>1073.16</ele>
        <time>2013-07-28T08:19:20Z</time>
      </trkpt>
      <trkpt lat="43.75172" lon="6.62674">
        <ele>1075.89</ele>
        <time>2013-07-28T08:19:29Z</time>
      </trkpt>
      <trkpt lat="43.75176" lon="6.62662">
        <ele>1078.55</ele>
        <time>2013-07-28T08:19:38Z</time>
      </trkpt>
      <trkpt lat="43.75179" lon="6.62647">
        <ele>1082.16</ele>
        <time>2013-07-28T08:19:53Z</time>
      </trkpt>
      <trkpt lat="43.75181" lon="6.62633">
        <ele>1084.36</ele>
        <time>2013-07-28T08:20:05Z</time>
      </trkpt>
      <trkpt lat="43.75182" lon="6.62618">
        <ele>1085.96</ele>
        <time>2013-07-28T08:20:17Z</time>
      </trkpt>
      <trkpt lat="43.7519" lon="6.6261">
        <ele>1086.8</ele>
        <time>2013-07-28T08:20:26Z</time>
      </trkpt>
      <trkpt lat="43.75195" lon="6.62598">
        <ele>1087.33</ele>
        <time>2013-07-28T08:20:38Z</time>
      </trkpt>
      <trkpt lat="43.752" lon="6.62586">
        <ele>1086.99</ele>
        <time>2013-07-28T08:20:53Z</time>
      </trkpt>
      <trkpt lat="43.75196" lon="6.62573">
        <ele>1086.39</ele>
        <time>2013-07-28T08:21:05Z</time>
      </trkpt>
      <trkpt lat="43.75193" lon="6.6256">
        <ele>1086.28</ele>
        <time>2013-07-28T08:21:11Z</time>
      </trkpt>
      <trkpt lat="43.75187" lon="6.62549">
        <ele>1086.4</ele>
        <time>2013-07-28T08:21:23Z</time>
      </trkpt>
      <trkpt lat="43.75183" lon="6.62536">
        <ele>1086.25</ele>
        <time>2013-07-28T08:21:35Z</time>
      </trkpt>
      <trkpt lat="43.7518" lon="6.62524">
        <ele>1086.19</ele>
        <time>2013-07-28T08:21:56Z</time>
      </trkpt>
      <trkpt lat="43.75174" lon="6.62513">
        <ele>1087.24</ele>
        <time>2013-07-28T08:22:11Z</time>
      </trkpt>
      <trkpt lat="43.75169" lon="6.62502">
        <ele>1090.81</ele>
        <time>2013-07-28T08:22:26Z</time>
      </trkpt>
      <trkpt lat="43.75166" lon="6.62489">
        <ele>1093.33</ele>
        <time>2013-07-28T08:22:41Z</time>
      </trkpt>
      <trkpt lat="43.75167" lon="6.62473">
        <ele>1095.13</ele>
        <time>2013-07-28T08:22:53Z</time>
      </trkpt>
      <trkpt lat="43.75172" lon="6.62461">
        <ele>1096.46</ele>
        <time>2013-07-28T08:23:02Z</time>
      </trkpt>
      <trkpt lat="43.75176" lon="6.62448">
        <ele>1097.43</ele>
        <time>2013-07-28T08:23:11Z</time>
      </trkpt>
      <trkpt lat="43.75181" lon="6.62436">
        <ele>1098.31</ele>
        <time>2013-07-28T08:23:23Z</time>
      </trkpt>
      <trkpt lat="43.75188" lon="6.62427">
        <ele>1098.91</ele>
        <time>2013-07-28T08:23:35Z</time>
      </trkpt>
      <trkpt lat="43.75198" lon="6.62424">
        <ele>1099.42</ele>
        <time>2013-07-28T08:23:47Z</time>
      </trkpt>
      <trkpt lat="43.7521" lon="6.62423">
        <ele>1099.76</ele>
        <time>2013-07-28T08:23:59Z</time>
      </trkpt>
      <trkpt lat="43.7522" lon="6.62419">
        <ele>1100.55</ele>
        <time>2013-07-28T08:24:11Z</time>
      </trkpt>
      <trkpt lat="43.75229" lon="6.62414">
        <ele>1101.68</ele>
        <time>2013-07-28T08:24:23Z</time>
      </trkpt>
      <trkpt lat="43.75239" lon="6.62412">
        <ele>1102.95</ele>
        <time>2013-07-28T08:24:35Z</time>
      </trkpt>
      <trkpt lat="43.75249" lon="6.62406">
        <ele>1104.65</ele>
        <time>2013-07-28T08:24:50Z</time>
      </trkpt>
      <trkpt lat="43.75257" lon="6.62401">
        <ele>1105.39</ele>
        <time>2013-07-28T08:25:02Z</time>
      </trkpt>
      <trkpt lat="43.75265" lon="6.62393">
        <ele>1106.32</ele>
        <time>2013-07-28T08:25:17Z</time>
      </trkpt>
      <trkpt lat="43.75274" lon="6.62386">
        <ele>1106.31</ele>
        <time>2013-07-28T08:25:32Z</time>
      </trkpt>
      <trkpt lat="43.75283" lon="6.62383">
        <ele>1106.02</ele>
        <time>2013-07-28T08:25:53Z</time>
      </trkpt>
      <trkpt lat="43.75292" lon="6.62378">
        <ele>1106.33</ele>
        <time>2013-07-28T08:26:02Z</time>
      </trkpt>
      <trkpt lat="43.75296" lon="6.62367">
        <ele>1107.53</ele>
        <time>2013-07-28T08:26:17Z</time>
      </trkpt>
      <trkpt lat="43.75287" lon="6.62368">
        <ele>1109.43</ele>
        <time>2013-07-28T08:26:35Z</time>
      </trkpt>
      <trkpt lat="43.75278" lon="6.6237">
        <ele>1110.22</ele>
        <time>2013-07-28T08:26:47Z</time>
      </trkpt>
      <trkpt lat="43.75268" lon="6.62371">
        <ele>1110.62</ele>
        <time>2013-07-28T08:26:59Z</time>
      </trkpt>
      <trkpt lat="43.75259" lon="6.62368">
        <ele>1112.26</ele>
        <time>2013-07-28T08:27:26Z</time>
      </trkpt>
      <trkpt lat="43.75249" lon="6.62368">
        <ele>1115.06</ele>
        <time>2013-07-28T08:27:47Z</time>
      </trkpt>
      <trkpt lat="43.75238" lon="6.62365">
        <ele>1117.48</ele>
        <time>2013-07-28T08:28:02Z</time>
      </trkpt>
      <trkpt lat="43.75229" lon="6.62356">
        <ele>1118.66</ele>
        <time>2013-07-28T08:28:14Z</time>
      </trkpt>
      <trkpt lat="43.75223" lon="6.62346">
        <ele>1119.1</ele>
        <time>2013-07-28T08:28:26Z</time>
      </trkpt>
      <trkpt lat="43.75216" lon="6.62333">
        <ele>1120.2</ele>
        <time>2013-07-28T08:28:41Z</time>
      </trkpt>
      <trkpt lat="43.75209" lon="6.62322">
        <ele>1120.65</ele>
        <time>2013-07-28T08:28:53Z</time>
      </trkpt>
      <trkpt lat="43.75203" lon="6.62308">
        <ele>1120.3</ele>
        <time>2013-07-28T08:29:05Z</time>
      </trkpt>
      <trkpt lat="43.75199" lon="6.62294">
        <ele>1119.9</ele>
        <time>2013-07-28T08:29:20Z</time>
      </trkpt>
      <trkpt lat="43.75195" lon="6.62282">
        <ele>1120.16</ele>
        <time>2013-07-28T08:29:32Z</time>
      </trkpt>
      <trkpt lat="43.75191" lon="6.6227">
        <ele>1121.62</ele>
        <time>2013-07-28T08:29:50Z</time>
      </trkpt>
      <trkpt lat="43.75183" lon="6.6226">
        <ele>1122.4</ele>
        <time>2013-07-28T08:30:05Z</time>
      </trkpt>
      <trkpt lat="43.75173" lon="6.62256">
        <ele>1123.94</ele>
        <time>2013-07-28T08:30:26Z</time>
      </trkpt>
      <trkpt lat="43.75164" lon="6.6225">
        <ele>1125.26</ele>
        <time>2013-07-28T08:30:38Z</time>
      </trkpt>
      <trkpt lat="43.75153" lon="6.62248">
        <ele>1127.33</ele>
        <time>2013-07-28T08:30:53Z</time>
      </trkpt>
      <trkpt lat="43.75144" lon="6.62242">
        <ele>1129.77</ele>
        <time>2013-07-28T08:31:08Z</time>
      </trkpt>
      <trkpt lat="43.75135" lon="6.62237">
        <ele>1131.13</ele>
        <time>2013-07-28T08:31:20Z</time>
      </trkpt>
      <trkpt lat="43.75126" lon="6.62237">
        <ele>1132.31</ele>
        <time>2013-07-28T08:31:32Z</time>
      </trkpt>
      <trkpt lat="43.75118" lon="6.6223">
        <ele>1133.68</ele>
        <time>2013-07-28T08:31:47Z</time>
      </trkpt>
      <trkpt lat="43.75111" lon="6.62222">
        <ele>1135.62</ele>
        <time>2013-07-28T08:32:05Z</time>
      </trkpt>
      <trkpt lat="43.751" lon="6.62218">
        <ele>1136.65</ele>
        <time>2013-07-28T08:32:20Z</time>
      </trkpt>
      <trkpt lat="43.75091" lon="6.62214">
        <ele>1137.27</ele>
        <time>2013-07-28T08:32:38Z</time>
      </trkpt>
      <trkpt lat="43.75081" lon="6.62208">
        <ele>1138.46</ele>
        <time>2013-07-28T08:32:53Z</time>
      </trkpt>
      <trkpt lat="43.75073" lon="6.62202">
        <ele>1139.35</ele>
        <time>2013-07-28T08:33:05Z</time>
      </trkpt>
      <trkpt lat="43.75063" lon="6.62196">
        <ele>1140.4</ele>
        <time>2013-07-28T08:33:23Z</time>
      </trkpt>
      <trkpt lat="43.75054" lon="6.62189">
        <ele>1141.62</ele>
        <time>2013-07-28T08:33:38Z</time>
      </trkpt>
      <trkpt lat="43.75045" lon="6.62186">
        <ele>1144.01</ele>
        <time>2013-07-28T08:33:59Z</time>
      </trkpt>
      <trkpt lat="43.75034" lon="6.62185">
        <ele>1146.52</ele>
        <time>2013-07-28T08:34:20Z</time>
      </trkpt>
      <trkpt lat="43.75024" lon="6.62187">
        <ele>1147.08</ele>
        <time>2013-07-28T08:34:32Z</time>
      </trkpt>
      <trkpt lat="43.75013" lon="6.62187">
        <ele>1148.77</ele>
        <time>2013-07-28T08:34:53Z</time>
      </trkpt>
      <trkpt lat="43.75003" lon="6.6218">
        <ele>1149.91</ele>
        <time>2013-07-28T08:35:08Z</time>
      </trkpt>
      <trkpt lat="43.74995" lon="6.62172">
        <ele>1150.45</ele>
        <time>2013-07-28T08:35:20Z</time>
      </trkpt>
      <trkpt lat="43.7499" lon="6.62161">
        <ele>1150.67</ele>
        <time>2013-07-28T08:35:32Z</time>
      </trkpt>
      <trkpt lat="43.74981" lon="6.62155">
        <ele>1150.96</ele>
        <time>2013-07-28T08:35:47Z</time>
      </trkpt>
      <trkpt lat="43.7497" lon="6.62152">
        <ele>1151.51</ele>
        <time>2013-07-28T08:36:02Z</time>
      </trkpt>
      <trkpt lat="43.7496" lon="6.62153">
        <ele>1153.15</ele>
        <time>2013-07-28T08:36:14Z</time>
      </trkpt>
      <trkpt lat="43.74949" lon="6.6215">
        <ele>1154.3</ele>
        <time>2013-07-28T08:36:29Z</time>
      </trkpt>
      <trkpt lat="43.74941" lon="6.6214">
        <ele>1154.58</ele>
        <time>2013-07-28T08:36:44Z</time>
      </trkpt>
      <trkpt lat="43.74933" lon="6.62132">
        <ele>1155.1</ele>
        <time>2013-07-28T08:36:56Z</time>
      </trkpt>
      <trkpt lat="43.74926" lon="6.62123">
        <ele>1155.74</ele>
        <time>2013-07-28T08:37:08Z</time>
      </trkpt>
      <trkpt lat="43.74921" lon="6.62112">
        <ele>1156.4</ele>
        <time>2013-07-28T08:37:20Z</time>
      </trkpt>
      <trkpt lat="43.7492" lon="6.621">
        <ele>1160.97</ele>
        <time>2013-07-28T08:40:04Z</time>
      </trkpt>
      <trkpt lat="43.74918" lon="6.62087">
        <ele>1160.91</ele>
        <time>2013-07-28T08:40:16Z</time>
      </trkpt>
      <trkpt lat="43.7491" lon="6.62079">
        <ele>1160.93</ele>
        <time>2013-07-28T08:40:31Z</time>
      </trkpt>
      <trkpt lat="43.74902" lon="6.62074">
        <ele>1161.46</ele>
        <time>2013-07-28T08:40:43Z</time>
      </trkpt>
      <trkpt lat="43.74892" lon="6.62068">
        <ele>1162.17</ele>
        <time>2013-07-28T08:41:01Z</time>
      </trkpt>
      <trkpt lat="43.74882" lon="6.62066">
        <ele>1163.51</ele>
        <time>2013-07-28T08:41:19Z</time>
      </trkpt>
      <trkpt lat="43.74874" lon="6.62058">
        <ele>1164.94</ele>
        <time>2013-07-28T08:41:31Z</time>
      </trkpt>
      <trkpt lat="43.74866" lon="6.62048">
        <ele>1165.76</ele>
        <time>2013-07-28T08:41:43Z</time>
      </trkpt>
      <trkpt lat="43.74858" lon="6.62042">
        <ele>1165.93</ele>
        <time>2013-07-28T08:42:01Z</time>
      </trkpt>
      <trkpt lat="43.74868" lon="6.6205">
        <ele>1167.71</ele>
        <time>2013-07-28T08:42:52Z</time>
      </trkpt>
      <trkpt lat="43.74879" lon="6.62049">
        <ele>1168.63</ele>
        <time>2013-07-28T08:43:07Z</time>
      </trkpt>
      <trkpt lat="43.74889" lon="6.6205">
        <ele>1168.66</ele>
        <time>2013-07-28T08:43:19Z</time>
      </trkpt>
      <trkpt lat="43.74899" lon="6.62056">
        <ele>1169.72</ele>
        <time>2013-07-28T08:43:37Z</time>
      </trkpt>
      <trkpt lat="43.7491" lon="6.62053">
        <ele>1171.08</ele>
        <time>2013-07-28T08:43:46Z</time>
      </trkpt>
      <trkpt lat="43.7492" lon="6.62052">
        <ele>1172.9</ele>
        <time>2013-07-28T08:43:58Z</time>
      </trkpt>
      <trkpt lat="43.74932" lon="6.62052">
        <ele>1174.03</ele>
        <time>2013-07-28T08:44:10Z</time>
      </trkpt>
      <trkpt lat="43.74941" lon="6.62055">
        <ele>1174.05</ele>
        <time>2013-07-28T08:44:28Z</time>
      </trkpt>
      <trkpt lat="43.74947" lon="6.62064">
        <ele>1174.29</ele>
        <time>2013-07-28T08:44:43Z</time>
      </trkpt>
      <trkpt lat="43.74958" lon="6.62065">
        <ele>1176.33</ele>
        <time>2013-07-28T08:45:04Z</time>
      </trkpt>
      <trkpt lat="43.74967" lon="6.6206">
        <ele>1178.02</ele>
        <time>2013-07-28T08:45:13Z</time>
      </trkpt>
      <trkpt lat="43.74977" lon="6.62058">
        <ele>1180.86</ele>
        <time>2013-07-28T08:45:31Z</time>
      </trkpt>
      <trkpt lat="43.74986" lon="6.62059">
        <ele>1183.51</ele>
        <time>2013-07-28T08:45:52Z</time>
      </trkpt>
      <trkpt lat="43.74996" lon="6.62059">
        <ele>1184.31</ele>
        <time>2013-07-28T08:46:07Z</time>
      </trkpt>
      <trkpt lat="43.75009" lon="6.62058">
        <ele>1184.56</ele>
        <time>2013-07-28T08:46:19Z</time>
      </trkpt>
      <trkpt lat="43.7502" lon="6.62059">
        <ele>1184.78</ele>
        <time>2013-07-28T08:46:37Z</time>
      </trkpt>
      <trkpt lat="43.75029" lon="6.62065">
        <ele>1185.71</ele>
        <time>2013-07-28T08:46:49Z</time>
      </trkpt>
      <trkpt lat="43.75039" lon="6.62062">
        <ele>1187.22</ele>
        <time>2013-07-28T08:47:01Z</time>
      </trkpt>
      <trkpt lat="43.75048" lon="6.6206">
        <ele>1188.42</ele>
        <time>2013-07-28T08:47:13Z</time>
      </trkpt>
      <trkpt lat="43.75061" lon="6.62061">
        <ele>1190.39</ele>
        <time>2013-07-28T08:47:31Z</time>
      </trkpt>
      <trkpt lat="43.75071" lon="6.62067">
        <ele>1191.65</ele>
        <time>2013-07-28T08:47:43Z</time>
      </trkpt>
      <trkpt lat="43.75081" lon="6.62067">
        <ele>1193.89</ele>
        <time>2013-07-28T08:47:58Z</time>
      </trkpt>
      <trkpt lat="43.75093" lon="6.62067">
        <ele>1197.1</ele>
        <time>2013-07-28T08:48:19Z</time>
      </trkpt>
      <trkpt lat="43.75103" lon="6.6206">
        <ele>1198.2</ele>
        <time>2013-07-28T08:48:31Z</time>
      </trkpt>
      <trkpt lat="43.75112" lon="6.62054">
        <ele>1199.52</ele>
        <time>2013-07-28T08:48:49Z</time>
      </trkpt>
      <trkpt lat="43.75123" lon="6.62055">
        <ele>1199.98</ele>
        <time>2013-07-28T08:49:07Z</time>
      </trkpt>
      <trkpt lat="43.7513" lon="6.62062">
        <ele>1199.47</ele>
        <time>2013-07-28T08:49:19Z</time>
      </trkpt>
      <trkpt lat="43.75142" lon="6.62062">
        <ele>1199.86</ele>
        <time>2013-07-28T08:49:37Z</time>
      </trkpt>
      <trkpt lat="43.75151" lon="6.62068">
        <ele>1201.27</ele>
        <time>2013-07-28T08:49:52Z</time>
      </trkpt>
      <trkpt lat="43.75161" lon="6.62073">
        <ele>1201.73</ele>
        <time>2013-07-28T08:50:07Z</time>
      </trkpt>
      <trkpt lat="43.75168" lon="6.62081">
        <ele>1202.27</ele>
        <time>2013-07-28T08:50:19Z</time>
      </trkpt>
      <trkpt lat="43.75177" lon="6.62082">
        <ele>1203.24</ele>
        <time>2013-07-28T08:50:31Z</time>
      </trkpt>
      <trkpt lat="43.75186" lon="6.62085">
        <ele>1204.55</ele>
        <time>2013-07-28T08:50:46Z</time>
      </trkpt>
      <trkpt lat="43.75195" lon="6.62089">
        <ele>1206.15</ele>
        <time>2013-07-28T08:51:04Z</time>
      </trkpt>
      <trkpt lat="43.75204" lon="6.62089">
        <ele>1206.76</ele>
        <time>2013-07-28T08:51:13Z</time>
      </trkpt>
      <trkpt lat="43.75212" lon="6.62094">
        <ele>1207.69</ele>
        <time>2013-07-28T08:51:31Z</time>
      </trkpt>
      <trkpt lat="43.75222" lon="6.62087">
        <ele>1210.75</ele>
        <time>2013-07-28T08:51:52Z</time>
      </trkpt>
      <trkpt lat="43.75233" lon="6.62077">
        <ele>1212.37</ele>
        <time>2013-07-28T08:52:04Z</time>
      </trkpt>
      <trkpt lat="43.75241" lon="6.62066">
        <ele>1212.79</ele>
        <time>2013-07-28T08:52:16Z</time>
      </trkpt>
      <trkpt lat="43.7525" lon="6.62059">
        <ele>1212.63</ele>
        <time>2013-07-28T08:52:25Z</time>
      </trkpt>
      <trkpt lat="43.75258" lon="6.62054">
        <ele>1212.2</ele>
        <time>2013-07-28T08:52:34Z</time>
      </trkpt>
      <trkpt lat="43.75267" lon="6.62063">
        <ele>1211.85</ele>
        <time>2013-07-28T08:52:55Z</time>
      </trkpt>
      <trkpt lat="43.75268" lon="6.62062">
        <ele>1213.16</ele>
        <time>2013-07-28T08:53:28Z</time>
      </trkpt>
      <trkpt lat="43.75272" lon="6.62073">
        <ele>1214.71</ele>
        <time>2013-07-28T08:53:55Z</time>
      </trkpt>
      <trkpt lat="43.75279" lon="6.62082">
        <ele>1215.25</ele>
        <time>2013-07-28T08:54:04Z</time>
      </trkpt>
      <trkpt lat="43.75284" lon="6.62095">
        <ele>1216.02</ele>
        <time>2013-07-28T08:54:16Z</time>
      </trkpt>
      <trkpt lat="43.75292" lon="6.62102">
        <ele>1217.18</ele>
        <time>2013-07-28T08:54:28Z</time>
      </trkpt>
      <trkpt lat="43.75301" lon="6.621">
        <ele>1219.63</ele>
        <time>2013-07-28T08:55:43Z</time>
      </trkpt>
      <trkpt lat="43.7531" lon="6.62099">
        <ele>1219.68</ele>
        <time>2013-07-28T08:55:55Z</time>
      </trkpt>
      <trkpt lat="43.75319" lon="6.62098">
        <ele>1219.83</ele>
        <time>2013-07-28T08:56:10Z</time>
      </trkpt>
      <trkpt lat="43.75329" lon="6.62092">
        <ele>1219.51</ele>
        <time>2013-07-28T08:56:22Z</time>
      </trkpt>
      <trkpt lat="43.75341" lon="6.6209">
        <ele>1219.29</ele>
        <time>2013-07-28T08:56:34Z</time>
      </trkpt>
      <trkpt lat="43.75352" lon="6.62089">
        <ele>1219.35</ele>
        <time>2013-07-28T08:56:46Z</time>
      </trkpt>
      <trkpt lat="43.75363" lon="6.62083">
        <ele>1218.83</ele>
        <time>2013-07-28T08:57:01Z</time>
      </trkpt>
      <trkpt lat="43.75373" lon="6.62085">
        <ele>1218.55</ele>
        <time>2013-07-28T08:57:13Z</time>
      </trkpt>
      <trkpt lat="43.75381" lon="6.62092">
        <ele>1220.65</ele>
        <time>2013-07-28T08:57:52Z</time>
      </trkpt>
      <trkpt lat="43.75392" lon="6.62087">
        <ele>1222.59</ele>
        <time>2013-07-28T08:58:07Z</time>
      </trkpt>
      <trkpt lat="43.75402" lon="6.62084">
        <ele>1224.61</ele>
        <time>2013-07-28T08:58:19Z</time>
      </trkpt>
      <trkpt lat="43.75411" lon="6.62077">
        <ele>1226.36</ele>
        <time>2013-07-28T08:58:34Z</time>
      </trkpt>
      <trkpt lat="43.7542" lon="6.62069">
        <ele>1227.33</ele>
        <time>2013-07-28T08:58:58Z</time>
      </trkpt>
      <trkpt lat="43.75431" lon="6.62067">
        <ele>1228.79</ele>
        <time>2013-07-28T08:59:13Z</time>
      </trkpt>
      <trkpt lat="43.75441" lon="6.62064">
        <ele>1231.31</ele>
        <time>2013-07-28T08:59:28Z</time>
      </trkpt>
      <trkpt lat="43.75452" lon="6.62061">
        <ele>1232.81</ele>
        <time>2013-07-28T08:59:40Z</time>
      </trkpt>
      <trkpt lat="43.75461" lon="6.62059">
        <ele>1234.95</ele>
        <time>2013-07-28T08:59:58Z</time>
      </trkpt>
      <trkpt lat="43.75471" lon="6.62055">
        <ele>1237.48</ele>
        <time>2013-07-28T09:00:16Z</time>
      </trkpt>
      <trkpt lat="43.75481" lon="6.62054">
        <ele>1237.91</ele>
        <time>2013-07-28T09:00:31Z</time>
      </trkpt>
      <trkpt lat="43.75491" lon="6.62058">
        <ele>1238.41</ele>
        <time>2013-07-28T09:00:46Z</time>
      </trkpt>
      <trkpt lat="43.75502" lon="6.6206">
        <ele>1239.43</ele>
        <time>2013-07-28T09:00:58Z</time>
      </trkpt>
      <trkpt lat="43.75512" lon="6.62056">
        <ele>1241.02</ele>
        <time>2013-07-28T09:01:13Z</time>
      </trkpt>
      <trkpt lat="43.75523" lon="6.62054">
        <ele>1241.52</ele>
        <time>2013-07-28T09:01:28Z</time>
      </trkpt>
      <trkpt lat="43.75531" lon="6.62061">
        <ele>1247.45</ele>
        <time>2013-07-28T09:04:25Z</time>
      </trkpt>
      <trkpt lat="43.75542" lon="6.62065">
        <ele>1247.2</ele>
        <time>2013-07-28T09:04:40Z</time>
      </trkpt>
      <trkpt lat="43.75551" lon="6.62069">
        <ele>1247.06</ele>
        <time>2013-07-28T09:04:52Z</time>
      </trkpt>
      <trkpt lat="43.75562" lon="6.62066">
        <ele>1246.94</ele>
        <time>2013-07-28T09:05:07Z</time>
      </trkpt>
      <trkpt lat="43.75571" lon="6.62065">
        <ele>1247.2</ele>
        <time>2013-07-28T09:05:19Z</time>
      </trkpt>
      <trkpt lat="43.75582" lon="6.62065">
        <ele>1248.2</ele>
        <time>2013-07-28T09:05:34Z</time>
      </trkpt>
      <trkpt lat="43.75593" lon="6.62066">
        <ele>1249.08</ele>
        <time>2013-07-28T09:05:52Z</time>
      </trkpt>
      <trkpt lat="43.75602" lon="6.62066">
        <ele>1249.39</ele>
        <time>2013-07-28T09:06:01Z</time>
      </trkpt>
      <trkpt lat="43.75611" lon="6.62068">
        <ele>1249.6</ele>
        <time>2013-07-28T09:06:13Z</time>
      </trkpt>
      <trkpt lat="43.7562" lon="6.62077">
        <ele>1249.64</ele>
        <time>2013-07-28T09:06:28Z</time>
      </trkpt>
      <trkpt lat="43.75631" lon="6.62077">
        <ele>1250.42</ele>
        <time>2013-07-28T09:06:43Z</time>
      </trkpt>
      <trkpt lat="43.75642" lon="6.62074">
        <ele>1251.55</ele>
        <time>2013-07-28T09:06:55Z</time>
      </trkpt>
      <trkpt lat="43.75651" lon="6.62068">
        <ele>1252.4</ele>
        <time>2013-07-28T09:07:07Z</time>
      </trkpt>
      <trkpt lat="43.7566" lon="6.62063">
        <ele>1252.94</ele>
        <time>2013-07-28T09:07:19Z</time>
      </trkpt>
      <trkpt lat="43.75671" lon="6.62061">
        <ele>1254.01</ele>
        <time>2013-07-28T09:07:40Z</time>
      </trkpt>
      <trkpt lat="43.7568" lon="6.62058">
        <ele>1255.1</ele>
        <time>2013-07-28T09:07:52Z</time>
      </trkpt>
      <trkpt lat="43.75691" lon="6.62058">
        <ele>1256.71</ele>
        <time>2013-07-28T09:08:07Z</time>
      </trkpt>
      <trkpt lat="43.757" lon="6.62056">
        <ele>1257.37</ele>
        <time>2013-07-28T09:08:22Z</time>
      </trkpt>
      <trkpt lat="43.75711" lon="6.62055">
        <ele>1258.67</ele>
        <time>2013-07-28T09:08:34Z</time>
      </trkpt>
      <trkpt lat="43.7572" lon="6.62048">
        <ele>1261.66</ele>
        <time>2013-07-28T09:08:58Z</time>
      </trkpt>
      <trkpt lat="43.75728" lon="6.6204">
        <ele>1264.26</ele>
        <time>2013-07-28T09:09:22Z</time>
      </trkpt>
      <trkpt lat="43.75735" lon="6.6203">
        <ele>1266.37</ele>
        <time>2013-07-28T09:09:55Z</time>
      </trkpt>
      <trkpt lat="43.7574" lon="6.62019">
        <ele>1267.68</ele>
        <time>2013-07-28T09:10:10Z</time>
      </trkpt>
      <trkpt lat="43.7575" lon="6.62013">
        <ele>1268.49</ele>
        <time>2013-07-28T09:10:28Z</time>
      </trkpt>
      <trkpt lat="43.75757" lon="6.62003">
        <ele>1269.61</ele>
        <time>2013-07-28T09:10:43Z</time>
      </trkpt>
      <trkpt lat="43.75763" lon="6.61992">
        <ele>1271.02</ele>
        <time>2013-07-28T09:10:58Z</time>
      </trkpt>
      <trkpt lat="43.7577" lon="6.61981">
        <ele>1272.89</ele>
        <time>2013-07-28T09:11:16Z</time>
      </trkpt>
      <trkpt lat="43.75773" lon="6.61967">
        <ele>1274.51</ele>
        <time>2013-07-28T09:11:37Z</time>
      </trkpt>
      <trkpt lat="43.75776" lon="6.61956">
        <ele>1276.46</ele>
        <time>2013-07-28T09:11:49Z</time>
      </trkpt>
      <trkpt lat="43.75781" lon="6.61945">
        <ele>1278.66</ele>
        <time>2013-07-28T09:12:01Z</time>
      </trkpt>
      <trkpt lat="43.75786" lon="6.61933">
        <ele>1281.21</ele>
        <time>2013-07-28T09:12:16Z</time>
      </trkpt>
      <trkpt lat="43.75785" lon="6.61921">
        <ele>1283.42</ele>
        <time>2013-07-28T09:12:31Z</time>
      </trkpt>
      <trkpt lat="43.75782" lon="6.61908">
        <ele>1286.35</ele>
        <time>2013-07-28T09:14:08Z</time>
      </trkpt>
      <trkpt lat="43.7578" lon="6.61895">
        <ele>1286.64</ele>
        <time>2013-07-28T09:14:26Z</time>
      </trkpt>
      <trkpt lat="43.75777" lon="6.61881">
        <ele>1287.83</ele>
        <time>2013-07-28T09:14:56Z</time>
      </trkpt>
      <trkpt lat="43.75776" lon="6.61865">
        <ele>1288.39</ele>
        <time>2013-07-28T09:15:08Z</time>
      </trkpt>
      <trkpt lat="43.75773" lon="6.61853">
        <ele>1288.96</ele>
        <time>2013-07-28T09:15:17Z</time>
      </trkpt>
      <trkpt lat="43.75763" lon="6.6181">
        <ele>1290.23</ele>
        <time>2013-07-28T09:15:59Z</time>
      </trkpt>
      <trkpt lat="43.75762" lon="6.61794">
        <ele>1290.15</ele>
        <time>2013-07-28T09:16:17Z</time>
      </trkpt>
      <trkpt lat="43.75758" lon="6.61782">
        <ele>1290.54</ele>
        <time>2013-07-28T09:16:26Z</time>
      </trkpt>
      <trkpt lat="43.75759" lon="6.61769">
        <ele>1291.03</ele>
        <time>2013-07-28T09:16:38Z</time>
      </trkpt>
      <trkpt lat="43.75756" lon="6.61756">
        <ele>1291.32</ele>
        <time>2013-07-28T09:16:50Z</time>
      </trkpt>
      <trkpt lat="43.75756" lon="6.61743">
        <ele>1291.02</ele>
        <time>2013-07-28T09:17:17Z</time>
      </trkpt>
      <trkpt lat="43.75755" lon="6.61729">
        <ele>1289.91</ele>
        <time>2013-07-28T09:17:47Z</time>
      </trkpt>
      <trkpt lat="43.7575" lon="6.61718">
        <ele>1289.64</ele>
        <time>2013-07-28T09:17:56Z</time>
      </trkpt>
      <trkpt lat="43.75748" lon="6.61703">
        <ele>1289.42</ele>
        <time>2013-07-28T09:18:05Z</time>
      </trkpt>
      <trkpt lat="43.75749" lon="6.61688">
        <ele>1289.77</ele>
        <time>2013-07-28T09:18:17Z</time>
      </trkpt>
      <trkpt lat="43.7575" lon="6.61674">
        <ele>1290.22</ele>
        <time>2013-07-28T09:18:29Z</time>
      </trkpt>
      <trkpt lat="43.7575" lon="6.61661">
        <ele>1290.6</ele>
        <time>2013-07-28T09:18:44Z</time>
      </trkpt>
      <trkpt lat="43.75742" lon="6.61653">
        <ele>1290.69</ele>
        <time>2013-07-28T09:19:05Z</time>
      </trkpt>
      <trkpt lat="43.75734" lon="6.61647">
        <ele>1290.98</ele>
        <time>2013-07-28T09:19:23Z</time>
      </trkpt>
      <trkpt lat="43.75731" lon="6.61634">
        <ele>1291.17</ele>
        <time>2013-07-28T09:19:47Z</time>
      </trkpt>
      <trkpt lat="43.75728" lon="6.61622">
        <ele>1290.88</ele>
        <time>2013-07-28T09:19:56Z</time>
      </trkpt>
      <trkpt lat="43.75728" lon="6.6161">
        <ele>1290.84</ele>
        <time>2013-07-28T09:20:08Z</time>
      </trkpt>
      <trkpt lat="43.75725" lon="6.61596">
        <ele>1290.23</ele>
        <time>2013-07-28T09:20:32Z</time>
      </trkpt>
      <trkpt lat="43.75723" lon="6.61582">
        <ele>1289.41</ele>
        <time>2013-07-28T09:21:11Z</time>
      </trkpt>
      <trkpt lat="43.75724" lon="6.61568">
        <ele>1288.67</ele>
        <time>2013-07-28T09:21:44Z</time>
      </trkpt>
      <trkpt lat="43.7572" lon="6.61553">
        <ele>1288.16</ele>
        <time>2013-07-28T09:21:56Z</time>
      </trkpt>
      <trkpt lat="43.75723" lon="6.61536">
        <ele>1287.19</ele>
        <time>2013-07-28T09:22:32Z</time>
      </trkpt>
      <trkpt lat="43.75719" lon="6.61523">
        <ele>1287.48</ele>
        <time>2013-07-28T09:22:41Z</time>
      </trkpt>
      <trkpt lat="43.75716" lon="6.61511">
        <ele>1287.73</ele>
        <time>2013-07-28T09:22:50Z</time>
      </trkpt>
      <trkpt lat="43.75713" lon="6.61498">
        <ele>1287.75</ele>
        <time>2013-07-28T09:23:05Z</time>
      </trkpt>
      <trkpt lat="43.7571" lon="6.61485">
        <ele>1287.46</ele>
        <time>2013-07-28T09:23:17Z</time>
      </trkpt>
      <trkpt lat="43.7571" lon="6.61472">
        <ele>1287.06</ele>
        <time>2013-07-28T09:23:26Z</time>
      </trkpt>
      <trkpt lat="43.75706" lon="6.61459">
        <ele>1286.68</ele>
        <time>2013-07-28T09:23:38Z</time>
      </trkpt>
      <trkpt lat="43.75706" lon="6.61445">
        <ele>1287.01</ele>
        <time>2013-07-28T09:24:08Z</time>
      </trkpt>
      <trkpt lat="43.75705" lon="6.61432">
        <ele>1287.49</ele>
        <time>2013-07-28T09:25:32Z</time>
      </trkpt>
      <trkpt lat="43.75703" lon="6.61418">
        <ele>1287.48</ele>
        <time>2013-07-28T09:25:47Z</time>
      </trkpt>
      <trkpt lat="43.75701" lon="6.61404">
        <ele>1287.46</ele>
        <time>2013-07-28T09:25:56Z</time>
      </trkpt>
      <trkpt lat="43.75701" lon="6.61389">
        <ele>1288.35</ele>
        <time>2013-07-28T09:26:44Z</time>
      </trkpt>
      <trkpt lat="43.75699" lon="6.61373">
        <ele>1288.84</ele>
        <time>2013-07-28T09:26:53Z</time>
      </trkpt>
      <trkpt lat="43.75696" lon="6.61359">
        <ele>1289.14</ele>
        <time>2013-07-28T09:27:02Z</time>
      </trkpt>
      <trkpt lat="43.7569" lon="6.61348">
        <ele>1289.2</ele>
        <time>2013-07-28T09:27:11Z</time>
      </trkpt>
      <trkpt lat="43.75685" lon="6.61333">
        <ele>1289.16</ele>
        <time>2013-07-28T09:27:20Z</time>
      </trkpt>
      <trkpt lat="43.75685" lon="6.61318">
        <ele>1289.01</ele>
        <time>2013-07-28T09:27:29Z</time>
      </trkpt>
      <trkpt lat="43.75684" lon="6.61304">
        <ele>1289.03</ele>
        <time>2013-07-28T09:27:38Z</time>
      </trkpt>
      <trkpt lat="43.75684" lon="6.61291">
        <ele>1288.85</ele>
        <time>2013-07-28T09:27:59Z</time>
      </trkpt>
      <trkpt lat="43.75676" lon="6.61279">
        <ele>1288.23</ele>
        <time>2013-07-28T09:28:11Z</time>
      </trkpt>
      <trkpt lat="43.75679" lon="6.61267">
        <ele>1287.88</ele>
        <time>2013-07-28T09:28:20Z</time>
      </trkpt>
      <trkpt lat="43.75672" lon="6.61259">
        <ele>1290.29</ele>
        <time>2013-07-28T09:29:41Z</time>
      </trkpt>
      <trkpt lat="43.75679" lon="6.61266">
        <ele>1291.22</ele>
        <time>2013-07-28T09:30:47Z</time>
      </trkpt>
      <trkpt lat="43.75679" lon="6.61251">
        <ele>1290.74</ele>
        <time>2013-07-28T09:31:17Z</time>
      </trkpt>
      <trkpt lat="43.75673" lon="6.61234">
        <ele>1290.25</ele>
        <time>2013-07-28T09:31:29Z</time>
      </trkpt>
      <trkpt lat="43.75667" lon="6.61223">
        <ele>1289.71</ele>
        <time>2013-07-28T09:31:40Z</time>
      </trkpt>
      <trkpt lat="43.75665" lon="6.6121">
        <ele>1288.93</ele>
        <time>2013-07-28T09:31:49Z</time>
      </trkpt>
      <trkpt lat="43.75618" lon="6.61013">
        <ele>1282.52</ele>
        <time>2013-07-28T09:38:18Z</time>
      </trkpt>
      <trkpt lat="43.75609" lon="6.61001">
        <ele>1284.27</ele>
        <time>2013-07-28T09:38:33Z</time>
      </trkpt>
      <trkpt lat="43.75601" lon="6.60991">
        <ele>1282.3</ele>
        <time>2013-07-28T09:39:12Z</time>
      </trkpt>
      <trkpt lat="43.75598" lon="6.60979">
        <ele>1280.71</ele>
        <time>2013-07-28T09:39:24Z</time>
      </trkpt>
      <trkpt lat="43.75596" lon="6.60966">
        <ele>1280.11</ele>
        <time>2013-07-28T09:39:30Z</time>
      </trkpt>
      <trkpt lat="43.75592" lon="6.60951">
        <ele>1279.35</ele>
        <time>2013-07-28T09:39:42Z</time>
      </trkpt>
      <trkpt lat="43.75588" lon="6.60938">
        <ele>1279.57</ele>
        <time>2013-07-28T09:39:51Z</time>
      </trkpt>
      <trkpt lat="43.75581" lon="6.60926">
        <ele>1280.01</ele>
        <time>2013-07-28T09:40:09Z</time>
      </trkpt>
      <trkpt lat="43.75577" lon="6.60914">
        <ele>1279.77</ele>
        <time>2013-07-28T09:40:21Z</time>
      </trkpt>
      <trkpt lat="43.75571" lon="6.60903">
        <ele>1279.8</ele>
        <time>2013-07-28T09:40:33Z</time>
      </trkpt>
      <trkpt lat="43.75566" lon="6.6089">
        <ele>1279.47</ele>
        <time>2013-07-28T09:40:45Z</time>
      </trkpt>
      <trkpt lat="43.75561" lon="6.60878">
        <ele>1279.29</ele>
        <time>2013-07-28T09:41:00Z</time>
      </trkpt>
      <trkpt lat="43.75556" lon="6.60866">
        <ele>1279.27</ele>
        <time>2013-07-28T09:41:12Z</time>
      </trkpt>
      <trkpt lat="43.75553" lon="6.60852">
        <ele>1279.41</ele>
        <time>2013-07-28T09:41:21Z</time>
      </trkpt>
      <trkpt lat="43.75547" lon="6.60841">
        <ele>1279.83</ele>
        <time>2013-07-28T09:41:33Z</time>
      </trkpt>
      <trkpt lat="43.75545" lon="6.60827">
        <ele>1280.25</ele>
        <time>2013-07-28T09:41:48Z</time>
      </trkpt>
      <trkpt lat="43.7554" lon="6.60814">
        <ele>1280.66</ele>
        <time>2013-07-28T09:42:09Z</time>
      </trkpt>
      <trkpt lat="43.75537" lon="6.60801">
        <ele>1281.12</ele>
        <time>2013-07-28T09:42:21Z</time>
      </trkpt>
      <trkpt lat="43.7553" lon="6.60788">
        <ele>1281.67</ele>
        <time>2013-07-28T09:42:33Z</time>
      </trkpt>
      <trkpt lat="43.75529" lon="6.60772">
        <ele>1281.98</ele>
        <time>2013-07-28T09:42:45Z</time>
      </trkpt>
      <trkpt lat="43.75527" lon="6.60757">
        <ele>1282.03</ele>
        <time>2013-07-28T09:42:57Z</time>
      </trkpt>
      <trkpt lat="43.75527" lon="6.60744">
        <ele>1281.8</ele>
        <time>2013-07-28T09:43:13Z</time>
      </trkpt>
      <trkpt lat="43.75524" lon="6.6073">
        <ele>1280.85</ele>
        <time>2013-07-28T09:43:25Z</time>
      </trkpt>
      <trkpt lat="43.75521" lon="6.60718">
        <ele>1280.01</ele>
        <time>2013-07-28T09:43:34Z</time>
      </trkpt>
      <trkpt lat="43.75519" lon="6.60706">
        <ele>1279.31</ele>
        <time>2013-07-28T09:43:43Z</time>
      </trkpt>
      <trkpt lat="43.75518" lon="6.60692">
        <ele>1278.63</ele>
        <time>2013-07-28T09:43:55Z</time>
      </trkpt>
      <trkpt lat="43.75516" lon="6.6068">
        <ele>1278.03</ele>
        <time>2013-07-28T09:44:04Z</time>
      </trkpt>
      <trkpt lat="43.75512" lon="6.60668">
        <ele>1277.68</ele>
        <time>2013-07-28T09:44:13Z</time>
      </trkpt>
      <trkpt lat="43.7551" lon="6.60654">
        <ele>1277.3</ele>
        <time>2013-07-28T09:44:25Z</time>
      </trkpt>
      <trkpt lat="43.75508" lon="6.60639">
        <ele>1277.13</ele>
        <time>2013-07-28T09:44:37Z</time>
      </trkpt>
      <trkpt lat="43.75504" lon="6.60625">
        <ele>1277.39</ele>
        <time>2013-07-28T09:44:49Z</time>
      </trkpt>
      <trkpt lat="43.755" lon="6.6061">
        <ele>1277.98</ele>
        <time>2013-07-28T09:45:01Z</time>
      </trkpt>
      <trkpt lat="43.75495" lon="6.60598">
        <ele>1278.52</ele>
        <time>2013-07-28T09:45:13Z</time>
      </trkpt>
      <trkpt lat="43.75488" lon="6.60586">
        <ele>1278.71</ele>
        <time>2013-07-28T09:45:25Z</time>
      </trkpt>
      <trkpt lat="43.75484" lon="6.60572">
        <ele>1278.85</ele>
        <time>2013-07-28T09:45:37Z</time>
      </trkpt>
      <trkpt lat="43.75476" lon="6.60563">
        <ele>1279.4</ele>
        <time>2013-07-28T09:45:46Z</time>
      </trkpt>
      <trkpt lat="43.75471" lon="6.60552">
        <ele>1280.34</ele>
        <time>2013-07-28T09:45:58Z</time>
      </trkpt>
      <trkpt lat="43.75468" lon="6.6054">
        <ele>1280.78</ele>
        <time>2013-07-28T09:46:10Z</time>
      </trkpt>
      <trkpt lat="43.75459" lon="6.60529">
        <ele>1281.03</ele>
        <time>2013-07-28T09:46:22Z</time>
      </trkpt>
      <trkpt lat="43.75451" lon="6.60521">
        <ele>1281.27</ele>
        <time>2013-07-28T09:46:31Z</time>
      </trkpt>
      <trkpt lat="43.75443" lon="6.60513">
        <ele>1281.22</ele>
        <time>2013-07-28T09:46:40Z</time>
      </trkpt>
      <trkpt lat="43.75435" lon="6.60505">
        <ele>1281.16</ele>
        <time>2013-07-28T09:46:49Z</time>
      </trkpt>
      <trkpt lat="43.75428" lon="6.60497">
        <ele>1280.88</ele>
        <time>2013-07-28T09:47:01Z</time>
      </trkpt>
      <trkpt lat="43.75419" lon="6.60493">
        <ele>1280.26</ele>
        <time>2013-07-28T09:47:13Z</time>
      </trkpt>
      <trkpt lat="43.75412" lon="6.6048">
        <ele>1279.66</ele>
        <time>2013-07-28T09:47:25Z</time>
      </trkpt>
      <trkpt lat="43.75404" lon="6.6047">
        <ele>1279.3</ele>
        <time>2013-07-28T09:47:34Z</time>
      </trkpt>
      <trkpt lat="43.75398" lon="6.6046">
        <ele>1278.96</ele>
        <time>2013-07-28T09:47:42Z</time>
      </trkpt>
      <trkpt lat="43.75393" lon="6.60447">
        <ele>1278.66</ele>
        <time>2013-07-28T09:47:57Z</time>
      </trkpt>
      <trkpt lat="43.75388" lon="6.60436">
        <ele>1278.39</ele>
        <time>2013-07-28T09:48:09Z</time>
      </trkpt>
      <trkpt lat="43.75381" lon="6.60426">
        <ele>1278.44</ele>
        <time>2013-07-28T09:48:21Z</time>
      </trkpt>
      <trkpt lat="43.75376" lon="6.60415">
        <ele>1278.61</ele>
        <time>2013-07-28T09:48:33Z</time>
      </trkpt>
      <trkpt lat="43.75371" lon="6.60405">
        <ele>1278.54</ele>
        <time>2013-07-28T09:48:42Z</time>
      </trkpt>
      <trkpt lat="43.75366" lon="6.60393">
        <ele>1278.37</ele>
        <time>2013-07-28T09:48:54Z</time>
      </trkpt>
      <trkpt lat="43.7536" lon="6.6038">
        <ele>1278.41</ele>
        <time>2013-07-28T09:49:03Z</time>
      </trkpt>
      <trkpt lat="43.75356" lon="6.60368">
        <ele>1278.91</ele>
        <time>2013-07-28T09:49:12Z</time>
      </trkpt>
      <trkpt lat="43.75352" lon="6.60357">
        <ele>1279.43</ele>
        <time>2013-07-28T09:49:24Z</time>
      </trkpt>
      <trkpt lat="43.75347" lon="6.60346">
        <ele>1279.83</ele>
        <time>2013-07-28T09:49:33Z</time>
      </trkpt>
      <trkpt lat="43.75341" lon="6.60332">
        <ele>1279.81</ele>
        <time>2013-07-28T09:49:48Z</time>
      </trkpt>
      <trkpt lat="43.75335" lon="6.60323">
        <ele>1279.48</ele>
        <time>2013-07-28T09:49:57Z</time>
      </trkpt>
      <trkpt lat="43.75329" lon="6.6031">
        <ele>1279.12</ele>
        <time>2013-07-28T09:50:09Z</time>
      </trkpt>
      <trkpt lat="43.75323" lon="6.60298">
        <ele>1278.9</ele>
        <time>2013-07-28T09:50:21Z</time>
      </trkpt>
      <trkpt lat="43.75315" lon="6.60285">
        <ele>1278.72</ele>
        <time>2013-07-28T09:50:33Z</time>
      </trkpt>
      <trkpt lat="43.75311" lon="6.60273">
        <ele>1278.38</ele>
        <time>2013-07-28T09:50:42Z</time>
      </trkpt>
      <trkpt lat="43.75304" lon="6.60261">
        <ele>1277.73</ele>
        <time>2013-07-28T09:50:54Z</time>
      </trkpt>
      <trkpt lat="43.75297" lon="6.60251">
        <ele>1277.51</ele>
        <time>2013-07-28T09:51:03Z</time>
      </trkpt>
      <trkpt lat="43.75289" lon="6.60241">
        <ele>1277.36</ele>
        <time>2013-07-28T09:51:18Z</time>
      </trkpt>
      <trkpt lat="43.75285" lon="6.6023">
        <ele>1276.98</ele>
        <time>2013-07-28T09:51:33Z</time>
      </trkpt>
      <trkpt lat="43.75281" lon="6.60218">
        <ele>1276.89</ele>
        <time>2013-07-28T09:51:51Z</time>
      </trkpt>
      <trkpt lat="43.75273" lon="6.60208">
        <ele>1276.96</ele>
        <time>2013-07-28T09:52:12Z</time>
      </trkpt>
      <trkpt lat="43.75265" lon="6.60202">
        <ele>1276.64</ele>
        <time>2013-07-28T09:52:21Z</time>
      </trkpt>
      <trkpt lat="43.75257" lon="6.60191">
        <ele>1274.9</ele>
        <time>2013-07-28T09:52:39Z</time>
      </trkpt>
      <trkpt lat="43.75252" lon="6.6018">
        <ele>1273.21</ele>
        <time>2013-07-28T09:52:51Z</time>
      </trkpt>
      <trkpt lat="43.75245" lon="6.60166">
        <ele>1271.46</ele>
        <time>2013-07-28T09:53:03Z</time>
      </trkpt>
      <trkpt lat="43.75241" lon="6.60153">
        <ele>1270.23</ele>
        <time>2013-07-28T09:53:18Z</time>
      </trkpt>
      <trkpt lat="43.75232" lon="6.60142">
        <ele>1270.06</ele>
        <time>2013-07-28T09:53:30Z</time>
      </trkpt>
      <trkpt lat="43.75229" lon="6.60129">
        <ele>1269.92</ele>
        <time>2013-07-28T09:53:39Z</time>
      </trkpt>
      <trkpt lat="43.75222" lon="6.6012">
        <ele>1269.83</ele>
        <time>2013-07-28T09:53:54Z</time>
      </trkpt>
      <trkpt lat="43.75218" lon="6.60109">
        <ele>1269.78</ele>
        <time>2013-07-28T09:54:12Z</time>
      </trkpt>
      <trkpt lat="43.75209" lon="6.60113">
        <ele>1269.28</ele>
        <time>2013-07-28T09:54:30Z</time>
      </trkpt>
      <trkpt lat="43.75207" lon="6.60099">
        <ele>1267.79</ele>
        <time>2013-07-28T09:54:51Z</time>
      </trkpt>
      <trkpt lat="43.75212" lon="6.60088">
        <ele>1270.02</ele>
        <time>2013-07-28T09:55:48Z</time>
      </trkpt>
      <trkpt lat="43.75204" lon="6.60093">
        <ele>1275.44</ele>
        <time>2013-07-28T09:57:18Z</time>
      </trkpt>
      <trkpt lat="43.75213" lon="6.60093">
        <ele>1274.33</ele>
        <time>2013-07-28T09:58:00Z</time>
      </trkpt>
      <trkpt lat="43.75222" lon="6.60096">
        <ele>1274.98</ele>
        <time>2013-07-28T09:58:36Z</time>
      </trkpt>
      <trkpt lat="43.75214" lon="6.60087">
        <ele>1277.3</ele>
        <time>2013-07-28T09:59:18Z</time>
      </trkpt>
      <trkpt lat="43.75205" lon="6.60089">
        <ele>1276.72</ele>
        <time>2013-07-28T10:00:51Z</time>
      </trkpt>
      <trkpt lat="43.75203" lon="6.60076">
        <ele>1271.14</ele>
        <time>2013-07-28T10:11:12Z</time>
      </trkpt>
      <trkpt lat="43.75194" lon="6.60043">
        <ele>1272.58</ele>
        <time>2013-07-28T10:12:26Z</time>
      </trkpt>
      <trkpt lat="43.75186" lon="6.60032">
        <ele>1272.55</ele>
        <time>2013-07-28T10:12:35Z</time>
      </trkpt>
      <trkpt lat="43.75182" lon="6.6002">
        <ele>1273.31</ele>
        <time>2013-07-28T10:13:48Z</time>
      </trkpt>
      <trkpt lat="43.75179" lon="6.60004">
        <ele>1273.27</ele>
        <time>2013-07-28T10:13:57Z</time>
      </trkpt>
      <trkpt lat="43.75171" lon="6.59995">
        <ele>1272.62</ele>
        <time>2013-07-28T10:14:06Z</time>
      </trkpt>
      <trkpt lat="43.75166" lon="6.59985">
        <ele>1271.68</ele>
        <time>2013-07-28T10:14:15Z</time>
      </trkpt>
      <trkpt lat="43.75167" lon="6.59968">
        <ele>1270.14</ele>
        <time>2013-07-28T10:14:30Z</time>
      </trkpt>
      <trkpt lat="43.7516" lon="6.59957">
        <ele>1269.22</ele>
        <time>2013-07-28T10:14:39Z</time>
      </trkpt>
      <trkpt lat="43.75157" lon="6.59944">
        <ele>1268.16</ele>
        <time>2013-07-28T10:14:48Z</time>
      </trkpt>
      <trkpt lat="43.7515" lon="6.59934">
        <ele>1267.25</ele>
        <time>2013-07-28T10:15:06Z</time>
      </trkpt>
      <trkpt lat="43.75143" lon="6.59925">
        <ele>1267.6</ele>
        <time>2013-07-28T10:15:18Z</time>
      </trkpt>
      <trkpt lat="43.7514" lon="6.59912">
        <ele>1267.69</ele>
        <time>2013-07-28T10:15:30Z</time>
      </trkpt>
      <trkpt lat="43.75135" lon="6.599">
        <ele>1267.55</ele>
        <time>2013-07-28T10:15:39Z</time>
      </trkpt>
      <trkpt lat="43.75127" lon="6.59894">
        <ele>1267.38</ele>
        <time>2013-07-28T10:15:48Z</time>
      </trkpt>
      <trkpt lat="43.75118" lon="6.59887">
        <ele>1267.17</ele>
        <time>2013-07-28T10:15:57Z</time>
      </trkpt>
      <trkpt lat="43.75109" lon="6.59877">
        <ele>1266.79</ele>
        <time>2013-07-28T10:16:12Z</time>
      </trkpt>
      <trkpt lat="43.75103" lon="6.59866">
        <ele>1265.52</ele>
        <time>2013-07-28T10:16:24Z</time>
      </trkpt>
      <trkpt lat="43.75103" lon="6.59852">
        <ele>1264.43</ele>
        <time>2013-07-28T10:16:36Z</time>
      </trkpt>
      <trkpt lat="43.751" lon="6.5984">
        <ele>1263.85</ele>
        <time>2013-07-28T10:16:48Z</time>
      </trkpt>
      <trkpt lat="43.75094" lon="6.5983">
        <ele>1263.81</ele>
        <time>2013-07-28T10:16:57Z</time>
      </trkpt>
      <trkpt lat="43.75088" lon="6.5982">
        <ele>1263.46</ele>
        <time>2013-07-28T10:17:09Z</time>
      </trkpt>
      <trkpt lat="43.75081" lon="6.59807">
        <ele>1262.67</ele>
        <time>2013-07-28T10:17:21Z</time>
      </trkpt>
      <trkpt lat="43.75078" lon="6.59792">
        <ele>1262.7</ele>
        <time>2013-07-28T10:17:33Z</time>
      </trkpt>
      <trkpt lat="43.75073" lon="6.59777">
        <ele>1262.88</ele>
        <time>2013-07-28T10:17:45Z</time>
      </trkpt>
      <trkpt lat="43.75069" lon="6.59763">
        <ele>1262.78</ele>
        <time>2013-07-28T10:17:57Z</time>
      </trkpt>
      <trkpt lat="43.7507" lon="6.5975">
        <ele>1262.57</ele>
        <time>2013-07-28T10:18:09Z</time>
      </trkpt>
      <trkpt lat="43.75066" lon="6.59734">
        <ele>1262.29</ele>
        <time>2013-07-28T10:18:18Z</time>
      </trkpt>
      <trkpt lat="43.75065" lon="6.59717">
        <ele>1262.86</ele>
        <time>2013-07-28T10:18:30Z</time>
      </trkpt>
      <trkpt lat="43.7506" lon="6.59706">
        <ele>1263.44</ele>
        <time>2013-07-28T10:18:39Z</time>
      </trkpt>
      <trkpt lat="43.75053" lon="6.59698">
        <ele>1263.64</ele>
        <time>2013-07-28T10:18:48Z</time>
      </trkpt>
      <trkpt lat="43.75046" lon="6.59688">
        <ele>1263.35</ele>
        <time>2013-07-28T10:18:57Z</time>
      </trkpt>
      <trkpt lat="43.75043" lon="6.59675">
        <ele>1262.74</ele>
        <time>2013-07-28T10:19:12Z</time>
      </trkpt>
      <trkpt lat="43.7504" lon="6.59658">
        <ele>1262.52</ele>
        <time>2013-07-28T10:19:24Z</time>
      </trkpt>
      <trkpt lat="43.7504" lon="6.59643">
        <ele>1262.22</ele>
        <time>2013-07-28T10:19:36Z</time>
      </trkpt>
      <trkpt lat="43.75035" lon="6.59629">
        <ele>1261.71</ele>
        <time>2013-07-28T10:19:48Z</time>
      </trkpt>
      <trkpt lat="43.75029" lon="6.59618">
        <ele>1260.87</ele>
        <time>2013-07-28T10:20:00Z</time>
      </trkpt>
      <trkpt lat="43.75025" lon="6.59605">
        <ele>1259.08</ele>
        <time>2013-07-28T10:20:15Z</time>
      </trkpt>
      <trkpt lat="43.75016" lon="6.59591">
        <ele>1258.05</ele>
        <time>2013-07-28T10:20:24Z</time>
      </trkpt>
      <trkpt lat="43.7501" lon="6.5958">
        <ele>1257.14</ele>
        <time>2013-07-28T10:20:36Z</time>
      </trkpt>
      <trkpt lat="43.75004" lon="6.59568">
        <ele>1256.2</ele>
        <time>2013-07-28T10:21:09Z</time>
      </trkpt>
      <trkpt lat="43.74997" lon="6.59557">
        <ele>1256.3</ele>
        <time>2013-07-28T10:21:24Z</time>
      </trkpt>
      <trkpt lat="43.74998" lon="6.59544">
        <ele>1256.85</ele>
        <time>2013-07-28T10:21:42Z</time>
      </trkpt>
      <trkpt lat="43.74996" lon="6.59531">
        <ele>1257.47</ele>
        <time>2013-07-28T10:21:57Z</time>
      </trkpt>
      <trkpt lat="43.74995" lon="6.59515">
        <ele>1256.84</ele>
        <time>2013-07-28T10:22:12Z</time>
      </trkpt>
      <trkpt lat="43.74998" lon="6.59502">
        <ele>1256.38</ele>
        <time>2013-07-28T10:22:36Z</time>
      </trkpt>
      <trkpt lat="43.74994" lon="6.59487">
        <ele>1256.41</ele>
        <time>2013-07-28T10:22:48Z</time>
      </trkpt>
      <trkpt lat="43.74994" lon="6.59471">
        <ele>1256.13</ele>
        <time>2013-07-28T10:23:00Z</time>
      </trkpt>
      <trkpt lat="43.74994" lon="6.59457">
        <ele>1255.8</ele>
        <time>2013-07-28T10:23:12Z</time>
      </trkpt>
      <trkpt lat="43.7499" lon="6.59441">
        <ele>1254.81</ele>
        <time>2013-07-28T10:23:24Z</time>
      </trkpt>
      <trkpt lat="43.74985" lon="6.59429">
        <ele>1253.73</ele>
        <time>2013-07-28T10:23:33Z</time>
      </trkpt>
      <trkpt lat="43.74983" lon="6.59417">
        <ele>1252.29</ele>
        <time>2013-07-28T10:23:45Z</time>
      </trkpt>
      <trkpt lat="43.74981" lon="6.59404">
        <ele>1251.33</ele>
        <time>2013-07-28T10:23:54Z</time>
      </trkpt>
      <trkpt lat="43.7498" lon="6.59391">
        <ele>1251.19</ele>
        <time>2013-07-28T10:24:06Z</time>
      </trkpt>
      <trkpt lat="43.74975" lon="6.5938">
        <ele>1251.49</ele>
        <time>2013-07-28T10:24:18Z</time>
      </trkpt>
      <trkpt lat="43.74971" lon="6.59365">
        <ele>1251.64</ele>
        <time>2013-07-28T10:24:30Z</time>
      </trkpt>
      <trkpt lat="43.74966" lon="6.59354">
        <ele>1251.56</ele>
        <time>2013-07-28T10:24:39Z</time>
      </trkpt>
      <trkpt lat="43.74964" lon="6.59339">
        <ele>1251.08</ele>
        <time>2013-07-28T10:24:51Z</time>
      </trkpt>
      <trkpt lat="43.74961" lon="6.59327">
        <ele>1250.39</ele>
        <time>2013-07-28T10:25:03Z</time>
      </trkpt>
      <trkpt lat="43.74957" lon="6.59314">
        <ele>1249.07</ele>
        <time>2013-07-28T10:25:15Z</time>
      </trkpt>
      <trkpt lat="43.74952" lon="6.59301">
        <ele>1248.14</ele>
        <time>2013-07-28T10:25:24Z</time>
      </trkpt>
      <trkpt lat="43.74949" lon="6.59288">
        <ele>1247.52</ele>
        <time>2013-07-28T10:25:36Z</time>
      </trkpt>
      <trkpt lat="43.74946" lon="6.59273">
        <ele>1247.02</ele>
        <time>2013-07-28T10:25:48Z</time>
      </trkpt>
      <trkpt lat="43.74943" lon="6.59261">
        <ele>1246.71</ele>
        <time>2013-07-28T10:25:57Z</time>
      </trkpt>
      <trkpt lat="43.7494" lon="6.59246">
        <ele>1245.75</ele>
        <time>2013-07-28T10:26:09Z</time>
      </trkpt>
      <trkpt lat="43.74937" lon="6.59233">
        <ele>1244.31</ele>
        <time>2013-07-28T10:26:33Z</time>
      </trkpt>
      <trkpt lat="43.74936" lon="6.5922">
        <ele>1244.04</ele>
        <time>2013-07-28T10:26:57Z</time>
      </trkpt>
      <trkpt lat="43.74935" lon="6.59205">
        <ele>1243.65</ele>
        <time>2013-07-28T10:27:09Z</time>
      </trkpt>
      <trkpt lat="43.74933" lon="6.59191">
        <ele>1243.25</ele>
        <time>2013-07-28T10:27:27Z</time>
      </trkpt>
      <trkpt lat="43.74931" lon="6.59177">
        <ele>1243.23</ele>
        <time>2013-07-28T10:27:42Z</time>
      </trkpt>
      <trkpt lat="43.74931" lon="6.59165">
        <ele>1243.27</ele>
        <time>2013-07-28T10:27:57Z</time>
      </trkpt>
      <trkpt lat="43.74922" lon="6.59164">
        <ele>1244.66</ele>
        <time>2013-07-28T10:29:48Z</time>
      </trkpt>
      <trkpt lat="43.74925" lon="6.59152">
        <ele>1243.12</ele>
        <time>2013-07-28T10:30:39Z</time>
      </trkpt>
      <trkpt lat="43.74921" lon="6.59137">
        <ele>1243.09</ele>
        <time>2013-07-28T10:31:09Z</time>
      </trkpt>
      <trkpt lat="43.7491" lon="6.59132">
        <ele>1244.2</ele>
        <time>2013-07-28T10:31:21Z</time>
      </trkpt>
      <trkpt lat="43.74901" lon="6.59132">
        <ele>1246.78</ele>
        <time>2013-07-28T10:31:45Z</time>
      </trkpt>
      <trkpt lat="43.74906" lon="6.59146">
        <ele>1250.59</ele>
        <time>2013-07-28T10:33:00Z</time>
      </trkpt>
      <trkpt lat="43.74917" lon="6.59153">
        <ele>1250.91</ele>
        <time>2013-07-28T10:33:21Z</time>
      </trkpt>
      <trkpt lat="43.74921" lon="6.59165">
        <ele>1248.79</ele>
        <time>2013-07-28T10:33:42Z</time>
      </trkpt>
      <trkpt lat="43.74922" lon="6.59179">
        <ele>1246.31</ele>
        <time>2013-07-28T10:34:15Z</time>
      </trkpt>
      <trkpt lat="43.74925" lon="6.59194">
        <ele>1243.67</ele>
        <time>2013-07-28T10:34:30Z</time>
      </trkpt>
      <trkpt lat="43.74926" lon="6.59208">
        <ele>1240.91</ele>
        <time>2013-07-28T10:34:45Z</time>
      </trkpt>
      <trkpt lat="43.7493" lon="6.59222">
        <ele>1240.41</ele>
        <time>2013-07-28T10:34:57Z</time>
      </trkpt>
      <trkpt lat="43.74931" lon="6.59235">
        <ele>1240.98</ele>
        <time>2013-07-28T10:35:09Z</time>
      </trkpt>
      <trkpt lat="43.74933" lon="6.59249">
        <ele>1241.37</ele>
        <time>2013-07-28T10:35:21Z</time>
      </trkpt>
      <trkpt lat="43.74937" lon="6.59264">
        <ele>1242.06</ele>
        <time>2013-07-28T10:35:33Z</time>
      </trkpt>
      <trkpt lat="43.74941" lon="6.5928">
        <ele>1242.68</ele>
        <time>2013-07-28T10:35:48Z</time>
      </trkpt>
      <trkpt lat="43.74945" lon="6.59291">
        <ele>1243.68</ele>
        <time>2013-07-28T10:35:57Z</time>
      </trkpt>
      <trkpt lat="43.74948" lon="6.59305">
        <ele>1245.53</ele>
        <time>2013-07-28T10:36:12Z</time>
      </trkpt>
      <trkpt lat="43.74954" lon="6.59314">
        <ele>1246.58</ele>
        <time>2013-07-28T10:36:21Z</time>
      </trkpt>
      <trkpt lat="43.74956" lon="6.59327">
        <ele>1247.69</ele>
        <time>2013-07-28T10:36:36Z</time>
      </trkpt>
      <trkpt lat="43.74955" lon="6.5934">
        <ele>1248.19</ele>
        <time>2013-07-28T10:36:45Z</time>
      </trkpt>
      <trkpt lat="43.74958" lon="6.59352">
        <ele>1248.35</ele>
        <time>2013-07-28T10:37:00Z</time>
      </trkpt>
      <trkpt lat="43.74961" lon="6.59365">
        <ele>1247.29</ele>
        <time>2013-07-28T10:37:12Z</time>
      </trkpt>
      <trkpt lat="43.74963" lon="6.59379">
        <ele>1246.51</ele>
        <time>2013-07-28T10:37:24Z</time>
      </trkpt>
      <trkpt lat="43.74966" lon="6.59392">
        <ele>1245.65</ele>
        <time>2013-07-28T10:37:36Z</time>
      </trkpt>
      <trkpt lat="43.74968" lon="6.59405">
        <ele>1245.44</ele>
        <time>2013-07-28T10:37:54Z</time>
      </trkpt>
      <trkpt lat="43.74971" lon="6.5942">
        <ele>1245.75</ele>
        <time>2013-07-28T10:38:06Z</time>
      </trkpt>
      <trkpt lat="43.74972" lon="6.59433">
        <ele>1246.25</ele>
        <time>2013-07-28T10:38:15Z</time>
      </trkpt>
      <trkpt lat="43.74979" lon="6.59442">
        <ele>1246.91</ele>
        <time>2013-07-28T10:38:27Z</time>
      </trkpt>
      <trkpt lat="43.74983" lon="6.59454">
        <ele>1248.04</ele>
        <time>2013-07-28T10:38:42Z</time>
      </trkpt>
      <trkpt lat="43.74986" lon="6.59469">
        <ele>1249.67</ele>
        <time>2013-07-28T10:38:57Z</time>
      </trkpt>
      <trkpt lat="43.7499" lon="6.59484">
        <ele>1251.24</ele>
        <time>2013-07-28T10:39:12Z</time>
      </trkpt>
      <trkpt lat="43.7499" lon="6.59498">
        <ele>1251.43</ele>
        <time>2013-07-28T10:39:27Z</time>
      </trkpt>
      <trkpt lat="43.74991" lon="6.59512">
        <ele>1251.43</ele>
        <time>2013-07-28T10:39:39Z</time>
      </trkpt>
      <trkpt lat="43.74991" lon="6.59525">
        <ele>1253.12</ele>
        <time>2013-07-28T10:39:51Z</time>
      </trkpt>
      <trkpt lat="43.74992" lon="6.59539">
        <ele>1255.39</ele>
        <time>2013-07-28T10:40:03Z</time>
      </trkpt>
      <trkpt lat="43.74994" lon="6.59555">
        <ele>1257.51</ele>
        <time>2013-07-28T10:40:15Z</time>
      </trkpt>
      <trkpt lat="43.74996" lon="6.59569">
        <ele>1258.37</ele>
        <time>2013-07-28T10:40:24Z</time>
      </trkpt>
      <trkpt lat="43.74999" lon="6.59582">
        <ele>1259.46</ele>
        <time>2013-07-28T10:40:36Z</time>
      </trkpt>
      <trkpt lat="43.75005" lon="6.5959">
        <ele>1260.9</ele>
        <time>2013-07-28T10:40:48Z</time>
      </trkpt>
      <trkpt lat="43.7501" lon="6.59601">
        <ele>1261.47</ele>
        <time>2013-07-28T10:40:54Z</time>
      </trkpt>
      <trkpt lat="43.75015" lon="6.59613">
        <ele>1262.02</ele>
        <time>2013-07-28T10:41:06Z</time>
      </trkpt>
      <trkpt lat="43.75022" lon="6.59626">
        <ele>1261.94</ele>
        <time>2013-07-28T10:41:18Z</time>
      </trkpt>
      <trkpt lat="43.75029" lon="6.59637">
        <ele>1261.82</ele>
        <time>2013-07-28T10:41:30Z</time>
      </trkpt>
      <trkpt lat="43.7503" lon="6.59649">
        <ele>1262.37</ele>
        <time>2013-07-28T10:41:42Z</time>
      </trkpt>
      <trkpt lat="43.75032" lon="6.59663">
        <ele>1262.43</ele>
        <time>2013-07-28T10:41:54Z</time>
      </trkpt>
      <trkpt lat="43.7504" lon="6.59675">
        <ele>1262.34</ele>
        <time>2013-07-28T10:43:31Z</time>
      </trkpt>
      <trkpt lat="43.75036" lon="6.59687">
        <ele>1262.33</ele>
        <time>2013-07-28T10:44:04Z</time>
      </trkpt>
      <trkpt lat="43.75041" lon="6.59699">
        <ele>1261.78</ele>
        <time>2013-07-28T10:44:16Z</time>
      </trkpt>
      <trkpt lat="43.75049" lon="6.59712">
        <ele>1261.13</ele>
        <time>2013-07-28T10:44:34Z</time>
      </trkpt>
      <trkpt lat="43.7505" lon="6.59726">
        <ele>1261.45</ele>
        <time>2013-07-28T10:44:46Z</time>
      </trkpt>
      <trkpt lat="43.75056" lon="6.59738">
        <ele>1263.29</ele>
        <time>2013-07-28T10:45:01Z</time>
      </trkpt>
      <trkpt lat="43.75058" lon="6.59752">
        <ele>1264.07</ele>
        <time>2013-07-28T10:45:13Z</time>
      </trkpt>
      <trkpt lat="43.75059" lon="6.59766">
        <ele>1264.7</ele>
        <time>2013-07-28T10:45:22Z</time>
      </trkpt>
      <trkpt lat="43.75065" lon="6.59779">
        <ele>1265.74</ele>
        <time>2013-07-28T10:45:34Z</time>
      </trkpt>
      <trkpt lat="43.75067" lon="6.59794">
        <ele>1266.19</ele>
        <time>2013-07-28T10:45:43Z</time>
      </trkpt>
      <trkpt lat="43.75072" lon="6.59805">
        <ele>1267.2</ele>
        <time>2013-07-28T10:45:55Z</time>
      </trkpt>
      <trkpt lat="43.7508" lon="6.59814">
        <ele>1268.73</ele>
        <time>2013-07-28T10:46:07Z</time>
      </trkpt>
      <trkpt lat="43.75085" lon="6.59826">
        <ele>1270.48</ele>
        <time>2013-07-28T10:46:19Z</time>
      </trkpt>
      <trkpt lat="43.75088" lon="6.59843">
        <ele>1271.61</ele>
        <time>2013-07-28T10:46:37Z</time>
      </trkpt>
      <trkpt lat="43.75087" lon="6.59856">
        <ele>1271.65</ele>
        <time>2013-07-28T10:46:49Z</time>
      </trkpt>
      <trkpt lat="43.75093" lon="6.59868">
        <ele>1270.03</ele>
        <time>2013-07-28T10:47:10Z</time>
      </trkpt>
      <trkpt lat="43.75098" lon="6.59881">
        <ele>1269.67</ele>
        <time>2013-07-28T10:47:22Z</time>
      </trkpt>
      <trkpt lat="43.75105" lon="6.59891">
        <ele>1269.88</ele>
        <time>2013-07-28T10:47:31Z</time>
      </trkpt>
      <trkpt lat="43.75113" lon="6.59899">
        <ele>1271.27</ele>
        <time>2013-07-28T10:47:43Z</time>
      </trkpt>
      <trkpt lat="43.75122" lon="6.59904">
        <ele>1273.47</ele>
        <time>2013-07-28T10:48:01Z</time>
      </trkpt>
      <trkpt lat="43.75131" lon="6.5991">
        <ele>1273.17</ele>
        <time>2013-07-28T10:48:19Z</time>
      </trkpt>
      <trkpt lat="43.75137" lon="6.59921">
        <ele>1272.94</ele>
        <time>2013-07-28T10:48:25Z</time>
      </trkpt>
      <trkpt lat="43.75133" lon="6.59909">
        <ele>1273.24</ele>
        <time>2013-07-28T10:48:39Z</time>
      </trkpt>
      <trkpt lat="43.75142" lon="6.59916">
        <ele>1274.73</ele>
        <time>2013-07-28T10:48:57Z</time>
      </trkpt>
      <trkpt lat="43.75148" lon="6.59928">
        <ele>1275.26</ele>
        <time>2013-07-28T10:49:06Z</time>
      </trkpt>
      <trkpt lat="43.75155" lon="6.59938">
        <ele>1275.37</ele>
        <time>2013-07-28T10:49:15Z</time>
      </trkpt>
      <trkpt lat="43.75163" lon="6.59948">
        <ele>1275.45</ele>
        <time>2013-07-28T10:49:45Z</time>
      </trkpt>
      <trkpt lat="43.75165" lon="6.59961">
        <ele>1275.3</ele>
        <time>2013-07-28T10:50:03Z</time>
      </trkpt>
      <trkpt lat="43.75171" lon="6.59973">
        <ele>1274.85</ele>
        <time>2013-07-28T10:50:15Z</time>
      </trkpt>
      <trkpt lat="43.75175" lon="6.59993">
        <ele>1276.23</ele>
        <time>2013-07-28T10:51:05Z</time>
      </trkpt>
      <trkpt lat="43.75175" lon="6.60007">
        <ele>1276.06</ele>
        <time>2013-07-28T10:51:17Z</time>
      </trkpt>
      <trkpt lat="43.75183" lon="6.60016">
        <ele>1274.9</ele>
        <time>2013-07-28T10:51:50Z</time>
      </trkpt>
      <trkpt lat="43.75188" lon="6.60027">
        <ele>1273.44</ele>
        <time>2013-07-28T10:51:59Z</time>
      </trkpt>
      <trkpt lat="43.75195" lon="6.60038">
        <ele>1269.29</ele>
        <time>2013-07-28T10:52:14Z</time>
      </trkpt>
      <trkpt lat="43.75201" lon="6.6005">
        <ele>1266.11</ele>
        <time>2013-07-28T10:52:35Z</time>
      </trkpt>
      <trkpt lat="43.75194" lon="6.60059">
        <ele>1270.71</ele>
        <time>2013-07-28T10:54:15Z</time>
      </trkpt>
      <trkpt lat="43.75194" lon="6.60071">
        <ele>1270.02</ele>
        <time>2013-07-28T10:55:25Z</time>
      </trkpt>
      <trkpt lat="43.75195" lon="6.60084">
        <ele>1269.5</ele>
        <time>2013-07-28T10:55:37Z</time>
      </trkpt>
      <trkpt lat="43.75201" lon="6.60094">
        <ele>1271.71</ele>
        <time>2013-07-28T10:57:19Z</time>
      </trkpt>
      <trkpt lat="43.7521" lon="6.60097">
        <ele>1271.23</ele>
        <time>2013-07-28T10:58:07Z</time>
      </trkpt>
      <trkpt lat="43.75221" lon="6.60097">
        <ele>1271.31</ele>
        <time>2013-07-28T10:58:34Z</time>
      </trkpt>
      <trkpt lat="43.75211" lon="6.60097">
        <ele>1270.86</ele>
        <time>2013-07-28T11:01:01Z</time>
      </trkpt>
      <trkpt lat="43.75203" lon="6.60094">
        <ele>1270.89</ele>
        <time>2013-07-28T11:01:25Z</time>
      </trkpt>
      <trkpt lat="43.75211" lon="6.60099">
        <ele>1271.91</ele>
        <time>2013-07-28T11:03:48Z</time>
      </trkpt>
      <trkpt lat="43.75222" lon="6.60104">
        <ele>1275.7</ele>
        <time>2013-07-28T11:05:42Z</time>
      </trkpt>
      <trkpt lat="43.75238" lon="6.60167">
        <ele>1272.91</ele>
        <time>2013-07-28T11:07:08Z</time>
      </trkpt>
      <trkpt lat="43.75247" lon="6.60174">
        <ele>1273.78</ele>
        <time>2013-07-28T11:07:20Z</time>
      </trkpt>
      <trkpt lat="43.75255" lon="6.60187">
        <ele>1274.88</ele>
        <time>2013-07-28T11:07:35Z</time>
      </trkpt>
      <trkpt lat="43.75263" lon="6.60198">
        <ele>1277.4</ele>
        <time>2013-07-28T11:07:50Z</time>
      </trkpt>
      <trkpt lat="43.75269" lon="6.60212">
        <ele>1279.98</ele>
        <time>2013-07-28T11:08:05Z</time>
      </trkpt>
      <trkpt lat="43.75276" lon="6.60226">
        <ele>1281.65</ele>
        <time>2013-07-28T11:08:17Z</time>
      </trkpt>
      <trkpt lat="43.75282" lon="6.60235">
        <ele>1283.05</ele>
        <time>2013-07-28T11:08:26Z</time>
      </trkpt>
      <trkpt lat="43.75288" lon="6.60246">
        <ele>1285.43</ele>
        <time>2013-07-28T11:08:44Z</time>
      </trkpt>
      <trkpt lat="43.75291" lon="6.60259">
        <ele>1285.31</ele>
        <time>2013-07-28T11:09:20Z</time>
      </trkpt>
      <trkpt lat="43.753" lon="6.60265">
        <ele>1284.79</ele>
        <time>2013-07-28T11:10:02Z</time>
      </trkpt>
      <trkpt lat="43.75308" lon="6.60275">
        <ele>1283.69</ele>
        <time>2013-07-28T11:10:11Z</time>
      </trkpt>
      <trkpt lat="43.75313" lon="6.60285">
        <ele>1282.77</ele>
        <time>2013-07-28T11:10:20Z</time>
      </trkpt>
      <trkpt lat="43.75319" lon="6.60295">
        <ele>1281.23</ele>
        <time>2013-07-28T11:10:38Z</time>
      </trkpt>
      <trkpt lat="43.75325" lon="6.60306">
        <ele>1280.74</ele>
        <time>2013-07-28T11:10:56Z</time>
      </trkpt>
      <trkpt lat="43.75331" lon="6.6032">
        <ele>1280.4</ele>
        <time>2013-07-28T11:11:05Z</time>
      </trkpt>
      <trkpt lat="43.7534" lon="6.60322">
        <ele>1279.95</ele>
        <time>2013-07-28T11:11:26Z</time>
      </trkpt>
      <trkpt lat="43.75348" lon="6.60307">
        <ele>1279.88</ele>
        <time>2013-07-28T11:11:32Z</time>
      </trkpt>
      <trkpt lat="43.75362" lon="6.60299">
        <ele>1279.33</ele>
        <time>2013-07-28T11:11:41Z</time>
      </trkpt>
      <trkpt lat="43.75377" lon="6.60302">
        <ele>1277.99</ele>
        <time>2013-07-28T11:11:47Z</time>
      </trkpt>
      <trkpt lat="43.75375" lon="6.60316">
        <ele>1277.29</ele>
        <time>2013-07-28T11:11:50Z</time>
      </trkpt>
      <trkpt lat="43.75365" lon="6.60322">
        <ele>1276.81</ele>
        <time>2013-07-28T11:11:53Z</time>
      </trkpt>
      <trkpt lat="43.75354" lon="6.60332">
        <ele>1276.35</ele>
        <time>2013-07-28T11:11:59Z</time>
      </trkpt>
      <trkpt lat="43.75352" lon="6.60346">
        <ele>1276.45</ele>
        <time>2013-07-28T11:12:08Z</time>
      </trkpt>
      <trkpt lat="43.75354" lon="6.6036">
        <ele>1278.54</ele>
        <time>2013-07-28T11:12:32Z</time>
      </trkpt>
      <trkpt lat="43.7536" lon="6.60375">
        <ele>1279.22</ele>
        <time>2013-07-28T11:12:47Z</time>
      </trkpt>
      <trkpt lat="43.75365" lon="6.60388">
        <ele>1279.26</ele>
        <time>2013-07-28T11:12:56Z</time>
      </trkpt>
      <trkpt lat="43.75371" lon="6.60399">
        <ele>1279.29</ele>
        <time>2013-07-28T11:13:08Z</time>
      </trkpt>
      <trkpt lat="43.75372" lon="6.60412">
        <ele>1278.57</ele>
        <time>2013-07-28T11:14:02Z</time>
      </trkpt>
      <trkpt lat="43.7538" lon="6.60425">
        <ele>1278.77</ele>
        <time>2013-07-28T11:14:11Z</time>
      </trkpt>
      <trkpt lat="43.75386" lon="6.60438">
        <ele>1279.65</ele>
        <time>2013-07-28T11:14:23Z</time>
      </trkpt>
      <trkpt lat="43.75398" lon="6.60428">
        <ele>1280.85</ele>
        <time>2013-07-28T11:14:59Z</time>
      </trkpt>
      <trkpt lat="43.75408" lon="6.60419">
        <ele>1281.29</ele>
        <time>2013-07-28T11:15:08Z</time>
      </trkpt>
      <trkpt lat="43.75404" lon="6.60434">
        <ele>1283.92</ele>
        <time>2013-07-28T11:15:26Z</time>
      </trkpt>
      <trkpt lat="43.75407" lon="6.60448">
        <ele>1285.09</ele>
        <time>2013-07-28T11:15:35Z</time>
      </trkpt>
      <trkpt lat="43.7541" lon="6.60461">
        <ele>1286.04</ele>
        <time>2013-07-28T11:15:44Z</time>
      </trkpt>
      <trkpt lat="43.75413" lon="6.60474">
        <ele>1286.38</ele>
        <time>2013-07-28T11:15:53Z</time>
      </trkpt>
      <trkpt lat="43.75417" lon="6.60487">
        <ele>1286.04</ele>
        <time>2013-07-28T11:16:05Z</time>
      </trkpt>
      <trkpt lat="43.75422" lon="6.60499">
        <ele>1285.53</ele>
        <time>2013-07-28T11:16:14Z</time>
      </trkpt>
      <trkpt lat="43.75429" lon="6.60507">
        <ele>1285.03</ele>
        <time>2013-07-28T11:16:23Z</time>
      </trkpt>
      <trkpt lat="43.75436" lon="6.60514">
        <ele>1284.6</ele>
        <time>2013-07-28T11:16:32Z</time>
      </trkpt>
      <trkpt lat="43.75444" lon="6.60523">
        <ele>1284.27</ele>
        <time>2013-07-28T11:16:41Z</time>
      </trkpt>
      <trkpt lat="43.75452" lon="6.60534">
        <ele>1283.55</ele>
        <time>2013-07-28T11:16:53Z</time>
      </trkpt>
      <trkpt lat="43.75458" lon="6.60546">
        <ele>1283.06</ele>
        <time>2013-07-28T11:17:05Z</time>
      </trkpt>
      <trkpt lat="43.75465" lon="6.6056">
        <ele>1282.71</ele>
        <time>2013-07-28T11:17:14Z</time>
      </trkpt>
      <trkpt lat="43.75473" lon="6.60568">
        <ele>1282.4</ele>
        <time>2013-07-28T11:17:23Z</time>
      </trkpt>
      <trkpt lat="43.75514" lon="6.60625">
        <ele>1287.8</ele>
        <time>2013-07-28T11:19:06Z</time>
      </trkpt>
      <trkpt lat="43.7551" lon="6.60639">
        <ele>1287.67</ele>
        <time>2013-07-28T11:19:21Z</time>
      </trkpt>
      <trkpt lat="43.75512" lon="6.60653">
        <ele>1286.81</ele>
        <time>2013-07-28T11:19:51Z</time>
      </trkpt>
      <trkpt lat="43.75513" lon="6.60666">
        <ele>1286.28</ele>
        <time>2013-07-28T11:20:00Z</time>
      </trkpt>
      <trkpt lat="43.75518" lon="6.60679">
        <ele>1285.79</ele>
        <time>2013-07-28T11:20:12Z</time>
      </trkpt>
      <trkpt lat="43.7552" lon="6.60692">
        <ele>1285.47</ele>
        <time>2013-07-28T11:20:21Z</time>
      </trkpt>
      <trkpt lat="43.75522" lon="6.60708">
        <ele>1285.41</ele>
        <time>2013-07-28T11:20:33Z</time>
      </trkpt>
      <trkpt lat="43.75526" lon="6.60724">
        <ele>1285.19</ele>
        <time>2013-07-28T11:20:45Z</time>
      </trkpt>
      <trkpt lat="43.75528" lon="6.60736">
        <ele>1285.08</ele>
        <time>2013-07-28T11:20:54Z</time>
      </trkpt>
      <trkpt lat="43.75522" lon="6.60749">
        <ele>1284.28</ele>
        <time>2013-07-28T11:21:09Z</time>
      </trkpt>
      <trkpt lat="43.75522" lon="6.60763">
        <ele>1283.78</ele>
        <time>2013-07-28T11:21:18Z</time>
      </trkpt>
      <trkpt lat="43.75525" lon="6.60765">
        <ele>1283.88</ele>
        <time>2013-07-28T11:22:17Z</time>
      </trkpt>
      <trkpt lat="43.75529" lon="6.6078">
        <ele>1283.02</ele>
        <time>2013-07-28T11:22:27Z</time>
      </trkpt>
      <trkpt lat="43.75532" lon="6.60793">
        <ele>1280.66</ele>
        <time>2013-07-28T11:23:24Z</time>
      </trkpt>
      <trkpt lat="43.75539" lon="6.60806">
        <ele>1280.29</ele>
        <time>2013-07-28T11:23:33Z</time>
      </trkpt>
      <trkpt lat="43.75544" lon="6.60819">
        <ele>1280.52</ele>
        <time>2013-07-28T11:23:42Z</time>
      </trkpt>
      <trkpt lat="43.75547" lon="6.60833">
        <ele>1280.85</ele>
        <time>2013-07-28T11:23:51Z</time>
      </trkpt>
      <trkpt lat="43.75552" lon="6.60844">
        <ele>1281.06</ele>
        <time>2013-07-28T11:24:00Z</time>
      </trkpt>
      <trkpt lat="43.75556" lon="6.60857">
        <ele>1281.36</ele>
        <time>2013-07-28T11:24:09Z</time>
      </trkpt>
      <trkpt lat="43.75564" lon="6.6087">
        <ele>1281.87</ele>
        <time>2013-07-28T11:24:21Z</time>
      </trkpt>
      <trkpt lat="43.75568" lon="6.60882">
        <ele>1282.45</ele>
        <time>2013-07-28T11:24:33Z</time>
      </trkpt>
      <trkpt lat="43.75569" lon="6.60896">
        <ele>1284.74</ele>
        <time>2013-07-28T11:25:39Z</time>
      </trkpt>
      <trkpt lat="43.75575" lon="6.60907">
        <ele>1285.17</ele>
        <time>2013-07-28T11:25:51Z</time>
      </trkpt>
      <trkpt lat="43.75581" lon="6.60919">
        <ele>1285.6</ele>
        <time>2013-07-28T11:26:03Z</time>
      </trkpt>
      <trkpt lat="43.75588" lon="6.60929">
        <ele>1285.96</ele>
        <time>2013-07-28T11:26:21Z</time>
      </trkpt>
      <trkpt lat="43.75594" lon="6.60941">
        <ele>1286.21</ele>
        <time>2013-07-28T11:26:30Z</time>
      </trkpt>
      <trkpt lat="43.75598" lon="6.60954">
        <ele>1286.82</ele>
        <time>2013-07-28T11:26:42Z</time>
      </trkpt>
      <trkpt lat="43.756" lon="6.60971">
        <ele>1286.77</ele>
        <time>2013-07-28T11:27:23Z</time>
      </trkpt>
      <trkpt lat="43.75601" lon="6.60984">
        <ele>1286.38</ele>
        <time>2013-07-28T11:27:32Z</time>
      </trkpt>
      <trkpt lat="43.75606" lon="6.60995">
        <ele>1286.08</ele>
        <time>2013-07-28T11:27:41Z</time>
      </trkpt>
      <trkpt lat="43.75613" lon="6.61007">
        <ele>1285.95</ele>
        <time>2013-07-28T11:27:53Z</time>
      </trkpt>
      <trkpt lat="43.75623" lon="6.61016">
        <ele>1285.92</ele>
        <time>2013-07-28T11:28:02Z</time>
      </trkpt>
      <trkpt lat="43.75629" lon="6.61026">
        <ele>1285.86</ele>
        <time>2013-07-28T11:28:11Z</time>
      </trkpt>
      <trkpt lat="43.75634" lon="6.61036">
        <ele>1286.07</ele>
        <time>2013-07-28T11:28:23Z</time>
      </trkpt>
      <trkpt lat="43.75637" lon="6.61049">
        <ele>1286.9</ele>
        <time>2013-07-28T11:30:47Z</time>
      </trkpt>
      <trkpt lat="43.7564" lon="6.61061">
        <ele>1287.12</ele>
        <time>2013-07-28T11:30:56Z</time>
      </trkpt>
      <trkpt lat="43.75643" lon="6.61075">
        <ele>1287.51</ele>
        <time>2013-07-28T11:31:22Z</time>
      </trkpt>
      <trkpt lat="43.75647" lon="6.61087">
        <ele>1287.59</ele>
        <time>2013-07-28T11:31:31Z</time>
      </trkpt>
      <trkpt lat="43.7565" lon="6.61101">
        <ele>1287.57</ele>
        <time>2013-07-28T11:31:40Z</time>
      </trkpt>
      <trkpt lat="43.75651" lon="6.61115">
        <ele>1287.52</ele>
        <time>2013-07-28T11:31:49Z</time>
      </trkpt>
      <trkpt lat="43.75653" lon="6.61128">
        <ele>1287.32</ele>
        <time>2013-07-28T11:32:01Z</time>
      </trkpt>
      <trkpt lat="43.75657" lon="6.61141">
        <ele>1287.08</ele>
        <time>2013-07-28T11:32:13Z</time>
      </trkpt>
      <trkpt lat="43.75659" lon="6.61153">
        <ele>1287.22</ele>
        <time>2013-07-28T11:32:22Z</time>
      </trkpt>
      <trkpt lat="43.75662" lon="6.61169">
        <ele>1287.05</ele>
        <time>2013-07-28T11:32:34Z</time>
      </trkpt>
      <trkpt lat="43.75663" lon="6.61183">
        <ele>1286.95</ele>
        <time>2013-07-28T11:32:46Z</time>
      </trkpt>
      <trkpt lat="43.75667" lon="6.61198">
        <ele>1286.75</ele>
        <time>2013-07-28T11:32:58Z</time>
      </trkpt>
      <trkpt lat="43.75671" lon="6.61209">
        <ele>1288.62</ele>
        <time>2013-07-28T11:34:32Z</time>
      </trkpt>
      <trkpt lat="43.75674" lon="6.61222">
        <ele>1288.83</ele>
        <time>2013-07-28T11:34:41Z</time>
      </trkpt>
      <trkpt lat="43.75677" lon="6.61235">
        <ele>1290.24</ele>
        <time>2013-07-28T11:35:34Z</time>
      </trkpt>
      <trkpt lat="43.75677" lon="6.6125">
        <ele>1290.4</ele>
        <time>2013-07-28T11:35:43Z</time>
      </trkpt>
      <trkpt lat="43.75676" lon="6.61266">
        <ele>1290.5</ele>
        <time>2013-07-28T11:35:55Z</time>
      </trkpt>
      <trkpt lat="43.75678" lon="6.6128">
        <ele>1290.24</ele>
        <time>2013-07-28T11:36:07Z</time>
      </trkpt>
      <trkpt lat="43.7568" lon="6.61294">
        <ele>1289.88</ele>
        <time>2013-07-28T11:36:16Z</time>
      </trkpt>
      <trkpt lat="43.75682" lon="6.61306">
        <ele>1289.47</ele>
        <time>2013-07-28T11:36:31Z</time>
      </trkpt>
      <trkpt lat="43.75685" lon="6.61293">
        <ele>1289.15</ele>
        <time>2013-07-28T11:36:55Z</time>
      </trkpt>
      <trkpt lat="43.75693" lon="6.61283">
        <ele>1289.34</ele>
        <time>2013-07-28T11:37:04Z</time>
      </trkpt>
      <trkpt lat="43.75699" lon="6.61294">
        <ele>1290.05</ele>
        <time>2013-07-28T11:37:13Z</time>
      </trkpt>
      <trkpt lat="43.75693" lon="6.61306">
        <ele>1291.05</ele>
        <time>2013-07-28T11:37:33Z</time>
      </trkpt>
      <trkpt lat="43.7569" lon="6.61319">
        <ele>1291.3</ele>
        <time>2013-07-28T11:37:42Z</time>
      </trkpt>
      <trkpt lat="43.75688" lon="6.61333">
        <ele>1291.13</ele>
        <time>2013-07-28T11:37:51Z</time>
      </trkpt>
      <trkpt lat="43.75687" lon="6.61346">
        <ele>1290.66</ele>
        <time>2013-07-28T11:38:25Z</time>
      </trkpt>
      <trkpt lat="43.75692" lon="6.61358">
        <ele>1290.44</ele>
        <time>2013-07-28T11:38:34Z</time>
      </trkpt>
      <trkpt lat="43.75703" lon="6.61356">
        <ele>1289.17</ele>
        <time>2013-07-28T11:39:28Z</time>
      </trkpt>
      <trkpt lat="43.75703" lon="6.61373">
        <ele>1290.45</ele>
        <time>2013-07-28T11:39:35Z</time>
      </trkpt>
      <trkpt lat="43.75699" lon="6.61385">
        <ele>1288.19</ele>
        <time>2013-07-28T11:39:44Z</time>
      </trkpt>
      <trkpt lat="43.757" lon="6.61398">
        <ele>1285.6</ele>
        <time>2013-07-28T11:39:53Z</time>
      </trkpt>
      <trkpt lat="43.75701" lon="6.6141">
        <ele>1285.62</ele>
        <time>2013-07-28T11:40:02Z</time>
      </trkpt>
      <trkpt lat="43.75703" lon="6.61427">
        <ele>1285.45</ele>
        <time>2013-07-28T11:40:14Z</time>
      </trkpt>
      <trkpt lat="43.75705" lon="6.61441">
        <ele>1285.44</ele>
        <time>2013-07-28T11:40:23Z</time>
      </trkpt>
      <trkpt lat="43.75707" lon="6.61456">
        <ele>1285.46</ele>
        <time>2013-07-28T11:40:35Z</time>
      </trkpt>
      <trkpt lat="43.75711" lon="6.61469">
        <ele>1285.7</ele>
        <time>2013-07-28T11:40:53Z</time>
      </trkpt>
      <trkpt lat="43.75712" lon="6.61483">
        <ele>1285.43</ele>
        <time>2013-07-28T11:41:26Z</time>
      </trkpt>
      <trkpt lat="43.75712" lon="6.61497">
        <ele>1284.74</ele>
        <time>2013-07-28T11:41:38Z</time>
      </trkpt>
      <trkpt lat="43.75714" lon="6.61509">
        <ele>1284.29</ele>
        <time>2013-07-28T11:41:47Z</time>
      </trkpt>
      <trkpt lat="43.75714" lon="6.61522">
        <ele>1283.97</ele>
        <time>2013-07-28T11:41:56Z</time>
      </trkpt>
      <trkpt lat="43.75713" lon="6.61537">
        <ele>1283.9</ele>
        <time>2013-07-28T11:42:08Z</time>
      </trkpt>
      <trkpt lat="43.75714" lon="6.6155">
        <ele>1283.57</ele>
        <time>2013-07-28T11:42:20Z</time>
      </trkpt>
      <trkpt lat="43.75717" lon="6.61563">
        <ele>1283.28</ele>
        <time>2013-07-28T11:42:29Z</time>
      </trkpt>
      <trkpt lat="43.75724" lon="6.61577">
        <ele>1283.62</ele>
        <time>2013-07-28T11:42:41Z</time>
      </trkpt>
      <trkpt lat="43.7573" lon="6.6159">
        <ele>1283.82</ele>
        <time>2013-07-28T11:42:50Z</time>
      </trkpt>
      <trkpt lat="43.75733" lon="6.61605">
        <ele>1283.79</ele>
        <time>2013-07-28T11:42:59Z</time>
      </trkpt>
      <trkpt lat="43.75734" lon="6.6162">
        <ele>1283.64</ele>
        <time>2013-07-28T11:43:11Z</time>
      </trkpt>
      <trkpt lat="43.75737" lon="6.61635">
        <ele>1283.88</ele>
        <time>2013-07-28T11:43:23Z</time>
      </trkpt>
      <trkpt lat="43.75742" lon="6.61647">
        <ele>1284.08</ele>
        <time>2013-07-28T11:43:38Z</time>
      </trkpt>
      <trkpt lat="43.75741" lon="6.61662">
        <ele>1284.66</ele>
        <time>2013-07-28T11:43:50Z</time>
      </trkpt>
      <trkpt lat="43.75742" lon="6.61676">
        <ele>1285.56</ele>
        <time>2013-07-28T11:44:23Z</time>
      </trkpt>
      <trkpt lat="43.75744" lon="6.61693">
        <ele>1285.81</ele>
        <time>2013-07-28T11:44:38Z</time>
      </trkpt>
      <trkpt lat="43.75744" lon="6.61705">
        <ele>1285.77</ele>
        <time>2013-07-28T11:44:47Z</time>
      </trkpt>
      <trkpt lat="43.75748" lon="6.61717">
        <ele>1285.6</ele>
        <time>2013-07-28T11:44:56Z</time>
      </trkpt>
      <trkpt lat="43.75753" lon="6.61731">
        <ele>1285.63</ele>
        <time>2013-07-28T11:45:05Z</time>
      </trkpt>
      <trkpt lat="43.75755" lon="6.61747">
        <ele>1286.35</ele>
        <time>2013-07-28T11:45:17Z</time>
      </trkpt>
      <trkpt lat="43.75759" lon="6.61758">
        <ele>1286.76</ele>
        <time>2013-07-28T11:45:26Z</time>
      </trkpt>
      <trkpt lat="43.75761" lon="6.61773">
        <ele>1287.25</ele>
        <time>2013-07-28T11:45:38Z</time>
      </trkpt>
      <trkpt lat="43.7576" lon="6.61787">
        <ele>1287.45</ele>
        <time>2013-07-28T11:45:50Z</time>
      </trkpt>
      <trkpt lat="43.75761" lon="6.618">
        <ele>1287.53</ele>
        <time>2013-07-28T11:45:59Z</time>
      </trkpt>
      <trkpt lat="43.75762" lon="6.61815">
        <ele>1287.71</ele>
        <time>2013-07-28T11:46:11Z</time>
      </trkpt>
      <trkpt lat="43.75763" lon="6.6183">
        <ele>1287.9</ele>
        <time>2013-07-28T11:46:20Z</time>
      </trkpt>
      <trkpt lat="43.75764" lon="6.61845">
        <ele>1288.19</ele>
        <time>2013-07-28T11:46:32Z</time>
      </trkpt>
      <trkpt lat="43.75768" lon="6.61857">
        <ele>1288</ele>
        <time>2013-07-28T11:46:41Z</time>
      </trkpt>
      <trkpt lat="43.75772" lon="6.61869">
        <ele>1287.67</ele>
        <time>2013-07-28T11:46:50Z</time>
      </trkpt>
      <trkpt lat="43.75771" lon="6.61883">
        <ele>1287.12</ele>
        <time>2013-07-28T11:47:54Z</time>
      </trkpt>
      <trkpt lat="43.75776" lon="6.61897">
        <ele>1287.23</ele>
        <time>2013-07-28T11:48:03Z</time>
      </trkpt>
      <trkpt lat="43.75782" lon="6.61913">
        <ele>1286.95</ele>
        <time>2013-07-28T11:48:15Z</time>
      </trkpt>
      <trkpt lat="43.75784" lon="6.61926">
        <ele>1286.72</ele>
        <time>2013-07-28T11:48:24Z</time>
      </trkpt>
      <trkpt lat="43.7578" lon="6.6194">
        <ele>1286.9</ele>
        <time>2013-07-28T11:48:36Z</time>
      </trkpt>
      <trkpt lat="43.7579" lon="6.61939">
        <ele>1285.02</ele>
        <time>2013-07-28T11:50:17Z</time>
      </trkpt>
      <trkpt lat="43.75782" lon="6.61945">
        <ele>1284.45</ele>
        <time>2013-07-28T11:50:56Z</time>
      </trkpt>
      <trkpt lat="43.75787" lon="6.61935">
        <ele>1284.09</ele>
        <time>2013-07-28T11:51:35Z</time>
      </trkpt>
      <trkpt lat="43.75778" lon="6.61943">
        <ele>1282.86</ele>
        <time>2013-07-28T11:51:53Z</time>
      </trkpt>
      <trkpt lat="43.75777" lon="6.61956">
        <ele>1283.05</ele>
        <time>2013-07-28T11:52:11Z</time>
      </trkpt>
      <trkpt lat="43.75771" lon="6.61968">
        <ele>1283.74</ele>
        <time>2013-07-28T11:52:38Z</time>
      </trkpt>
      <trkpt lat="43.75768" lon="6.6198">
        <ele>1282.58</ele>
        <time>2013-07-28T11:52:53Z</time>
      </trkpt>
      <trkpt lat="43.75764" lon="6.61991">
        <ele>1282.24</ele>
        <time>2013-07-28T11:53:05Z</time>
      </trkpt>
      <trkpt lat="43.7576" lon="6.62004">
        <ele>1281.68</ele>
        <time>2013-07-28T11:53:26Z</time>
      </trkpt>
      <trkpt lat="43.7575" lon="6.62014">
        <ele>1280.49</ele>
        <time>2013-07-28T11:53:38Z</time>
      </trkpt>
      <trkpt lat="43.7574" lon="6.6202">
        <ele>1279.31</ele>
        <time>2013-07-28T11:53:53Z</time>
      </trkpt>
      <trkpt lat="43.75734" lon="6.62029">
        <ele>1278.17</ele>
        <time>2013-07-28T11:54:05Z</time>
      </trkpt>
      <trkpt lat="43.75728" lon="6.6204">
        <ele>1276.88</ele>
        <time>2013-07-28T11:54:20Z</time>
      </trkpt>
      <trkpt lat="43.75721" lon="6.62048">
        <ele>1275.45</ele>
        <time>2013-07-28T11:54:38Z</time>
      </trkpt>
      <trkpt lat="43.75711" lon="6.62052">
        <ele>1274.01</ele>
        <time>2013-07-28T11:54:50Z</time>
      </trkpt>
      <trkpt lat="43.75699" lon="6.62054">
        <ele>1272.09</ele>
        <time>2013-07-28T11:55:02Z</time>
      </trkpt>
      <trkpt lat="43.75688" lon="6.62057">
        <ele>1270.31</ele>
        <time>2013-07-28T11:55:14Z</time>
      </trkpt>
      <trkpt lat="43.75679" lon="6.62061">
        <ele>1268.46</ele>
        <time>2013-07-28T11:55:26Z</time>
      </trkpt>
      <trkpt lat="43.7567" lon="6.62064">
        <ele>1267.18</ele>
        <time>2013-07-28T11:55:35Z</time>
      </trkpt>
      <trkpt lat="43.7566" lon="6.62069">
        <ele>1266.43</ele>
        <time>2013-07-28T11:55:44Z</time>
      </trkpt>
      <trkpt lat="43.75651" lon="6.62072">
        <ele>1265.72</ele>
        <time>2013-07-28T11:55:59Z</time>
      </trkpt>
      <trkpt lat="43.75642" lon="6.62075">
        <ele>1264.56</ele>
        <time>2013-07-28T11:56:11Z</time>
      </trkpt>
      <trkpt lat="43.75632" lon="6.62076">
        <ele>1263.19</ele>
        <time>2013-07-28T11:56:23Z</time>
      </trkpt>
      <trkpt lat="43.75623" lon="6.62076">
        <ele>1262</ele>
        <time>2013-07-28T11:56:35Z</time>
      </trkpt>
      <trkpt lat="43.75613" lon="6.62071">
        <ele>1259.99</ele>
        <time>2013-07-28T11:56:50Z</time>
      </trkpt>
      <trkpt lat="43.75604" lon="6.62065">
        <ele>1258.75</ele>
        <time>2013-07-28T11:57:02Z</time>
      </trkpt>
      <trkpt lat="43.75594" lon="6.6206">
        <ele>1257.29</ele>
        <time>2013-07-28T11:57:14Z</time>
      </trkpt>
      <trkpt lat="43.75585" lon="6.62059">
        <ele>1255.43</ele>
        <time>2013-07-28T11:57:35Z</time>
      </trkpt>
      <trkpt lat="43.75575" lon="6.62064">
        <ele>1254.51</ele>
        <time>2013-07-28T11:57:44Z</time>
      </trkpt>
      <trkpt lat="43.75565" lon="6.62065">
        <ele>1253.65</ele>
        <time>2013-07-28T11:57:59Z</time>
      </trkpt>
      <trkpt lat="43.75556" lon="6.62067">
        <ele>1252.82</ele>
        <time>2013-07-28T11:58:11Z</time>
      </trkpt>
      <trkpt lat="43.75546" lon="6.62066">
        <ele>1252.18</ele>
        <time>2013-07-28T11:58:26Z</time>
      </trkpt>
      <trkpt lat="43.75538" lon="6.62061">
        <ele>1251.02</ele>
        <time>2013-07-28T11:58:38Z</time>
      </trkpt>
      <trkpt lat="43.75527" lon="6.62058">
        <ele>1249.48</ele>
        <time>2013-07-28T11:58:50Z</time>
      </trkpt>
      <trkpt lat="43.75517" lon="6.62056">
        <ele>1248.3</ele>
        <time>2013-07-28T11:59:02Z</time>
      </trkpt>
      <trkpt lat="43.75506" lon="6.62059">
        <ele>1247.45</ele>
        <time>2013-07-28T11:59:17Z</time>
      </trkpt>
      <trkpt lat="43.75495" lon="6.62058">
        <ele>1246.89</ele>
        <time>2013-07-28T11:59:29Z</time>
      </trkpt>
      <trkpt lat="43.75485" lon="6.62056">
        <ele>1245.73</ele>
        <time>2013-07-28T11:59:41Z</time>
      </trkpt>
      <trkpt lat="43.75476" lon="6.62057">
        <ele>1243.95</ele>
        <time>2013-07-28T11:59:56Z</time>
      </trkpt>
      <trkpt lat="43.75465" lon="6.6206">
        <ele>1242.67</ele>
        <time>2013-07-28T12:00:23Z</time>
      </trkpt>
      <trkpt lat="43.75456" lon="6.62061">
        <ele>1242.8</ele>
        <time>2013-07-28T12:00:38Z</time>
      </trkpt>
      <trkpt lat="43.75446" lon="6.62062">
        <ele>1243.47</ele>
        <time>2013-07-28T12:01:02Z</time>
      </trkpt>
      <trkpt lat="43.75435" lon="6.62064">
        <ele>1243.41</ele>
        <time>2013-07-28T12:01:14Z</time>
      </trkpt>
      <trkpt lat="43.75426" lon="6.62069">
        <ele>1242.96</ele>
        <time>2013-07-28T12:01:26Z</time>
      </trkpt>
      <trkpt lat="43.75417" lon="6.62073">
        <ele>1242.66</ele>
        <time>2013-07-28T12:01:35Z</time>
      </trkpt>
      <trkpt lat="43.75409" lon="6.6208">
        <ele>1242.55</ele>
        <time>2013-07-28T12:01:44Z</time>
      </trkpt>
      <trkpt lat="43.75399" lon="6.62084">
        <ele>1241.63</ele>
        <time>2013-07-28T12:01:59Z</time>
      </trkpt>
      <trkpt lat="43.7539" lon="6.62087">
        <ele>1241.3</ele>
        <time>2013-07-28T12:02:11Z</time>
      </trkpt>
      <trkpt lat="43.75381" lon="6.6209">
        <ele>1240.8</ele>
        <time>2013-07-28T12:02:23Z</time>
      </trkpt>
      <trkpt lat="43.75369" lon="6.6209">
        <ele>1240.39</ele>
        <time>2013-07-28T12:02:38Z</time>
      </trkpt>
      <trkpt lat="43.7536" lon="6.62088">
        <ele>1238.95</ele>
        <time>2013-07-28T12:02:53Z</time>
      </trkpt>
      <trkpt lat="43.7535" lon="6.62088">
        <ele>1237.59</ele>
        <time>2013-07-28T12:03:05Z</time>
      </trkpt>
      <trkpt lat="43.7534" lon="6.62092">
        <ele>1236.34</ele>
        <time>2013-07-28T12:03:20Z</time>
      </trkpt>
      <trkpt lat="43.7533" lon="6.62096">
        <ele>1234.57</ele>
        <time>2013-07-28T12:03:38Z</time>
      </trkpt>
      <trkpt lat="43.7532" lon="6.62096">
        <ele>1232.18</ele>
        <time>2013-07-28T12:03:53Z</time>
      </trkpt>
      <trkpt lat="43.7531" lon="6.62098">
        <ele>1230.1</ele>
        <time>2013-07-28T12:04:05Z</time>
      </trkpt>
      <trkpt lat="43.75299" lon="6.62096">
        <ele>1227.96</ele>
        <time>2013-07-28T12:04:29Z</time>
      </trkpt>
      <trkpt lat="43.7529" lon="6.62094">
        <ele>1226.74</ele>
        <time>2013-07-28T12:04:44Z</time>
      </trkpt>
      <trkpt lat="43.75282" lon="6.62084">
        <ele>1226.11</ele>
        <time>2013-07-28T12:04:56Z</time>
      </trkpt>
      <trkpt lat="43.75274" lon="6.62074">
        <ele>1225.19</ele>
        <time>2013-07-28T12:05:08Z</time>
      </trkpt>
      <trkpt lat="43.75266" lon="6.62063">
        <ele>1224.04</ele>
        <time>2013-07-28T12:05:20Z</time>
      </trkpt>
      <trkpt lat="43.7526" lon="6.62054">
        <ele>1222.94</ele>
        <time>2013-07-28T12:05:29Z</time>
      </trkpt>
      <trkpt lat="43.75252" lon="6.6206">
        <ele>1221.34</ele>
        <time>2013-07-28T12:05:44Z</time>
      </trkpt>
      <trkpt lat="43.75243" lon="6.62065">
        <ele>1220.22</ele>
        <time>2013-07-28T12:05:53Z</time>
      </trkpt>
      <trkpt lat="43.75236" lon="6.62073">
        <ele>1219.41</ele>
        <time>2013-07-28T12:06:02Z</time>
      </trkpt>
      <trkpt lat="43.75228" lon="6.6208">
        <ele>1219.25</ele>
        <time>2013-07-28T12:06:11Z</time>
      </trkpt>
      <trkpt lat="43.75217" lon="6.62085">
        <ele>1219.64</ele>
        <time>2013-07-28T12:06:26Z</time>
      </trkpt>
      <trkpt lat="43.75206" lon="6.62089">
        <ele>1219.74</ele>
        <time>2013-07-28T12:06:38Z</time>
      </trkpt>
      <trkpt lat="43.75196" lon="6.62089">
        <ele>1218.56</ele>
        <time>2013-07-28T12:06:53Z</time>
      </trkpt>
      <trkpt lat="43.75187" lon="6.62082">
        <ele>1217.4</ele>
        <time>2013-07-28T12:07:05Z</time>
      </trkpt>
      <trkpt lat="43.75176" lon="6.62077">
        <ele>1216.3</ele>
        <time>2013-07-28T12:07:20Z</time>
      </trkpt>
      <trkpt lat="43.75166" lon="6.62073">
        <ele>1215.76</ele>
        <time>2013-07-28T12:07:35Z</time>
      </trkpt>
      <trkpt lat="43.75157" lon="6.62069">
        <ele>1215.01</ele>
        <time>2013-07-28T12:07:50Z</time>
      </trkpt>
      <trkpt lat="43.75148" lon="6.62063">
        <ele>1214.07</ele>
        <time>2013-07-28T12:08:02Z</time>
      </trkpt>
      <trkpt lat="43.7514" lon="6.62059">
        <ele>1212.81</ele>
        <time>2013-07-28T12:08:14Z</time>
      </trkpt>
      <trkpt lat="43.7513" lon="6.62052">
        <ele>1211.19</ele>
        <time>2013-07-28T12:08:29Z</time>
      </trkpt>
      <trkpt lat="43.75122" lon="6.62047">
        <ele>1209.96</ele>
        <time>2013-07-28T12:08:38Z</time>
      </trkpt>
      <trkpt lat="43.75112" lon="6.6205">
        <ele>1206.44</ele>
        <time>2013-07-28T12:08:56Z</time>
      </trkpt>
      <trkpt lat="43.75104" lon="6.62057">
        <ele>1202.91</ele>
        <time>2013-07-28T12:09:41Z</time>
      </trkpt>
      <trkpt lat="43.75094" lon="6.62058">
        <ele>1202.42</ele>
        <time>2013-07-28T12:11:38Z</time>
      </trkpt>
      <trkpt lat="43.75083" lon="6.6206">
        <ele>1201.08</ele>
        <time>2013-07-28T12:11:56Z</time>
      </trkpt>
      <trkpt lat="43.75074" lon="6.62061">
        <ele>1200.32</ele>
        <time>2013-07-28T12:12:14Z</time>
      </trkpt>
      <trkpt lat="43.75064" lon="6.62059">
        <ele>1199.2</ele>
        <time>2013-07-28T12:12:32Z</time>
      </trkpt>
      <trkpt lat="43.75055" lon="6.62059">
        <ele>1198.31</ele>
        <time>2013-07-28T12:12:44Z</time>
      </trkpt>
      <trkpt lat="43.75044" lon="6.62059">
        <ele>1197.3</ele>
        <time>2013-07-28T12:12:59Z</time>
      </trkpt>
      <trkpt lat="43.75034" lon="6.62057">
        <ele>1196.63</ele>
        <time>2013-07-28T12:13:11Z</time>
      </trkpt>
      <trkpt lat="43.75024" lon="6.62058">
        <ele>1196.09</ele>
        <time>2013-07-28T12:13:26Z</time>
      </trkpt>
      <trkpt lat="43.75014" lon="6.62054">
        <ele>1195.18</ele>
        <time>2013-07-28T12:13:44Z</time>
      </trkpt>
      <trkpt lat="43.75002" lon="6.62051">
        <ele>1193.36</ele>
        <time>2013-07-28T12:13:59Z</time>
      </trkpt>
      <trkpt lat="43.74992" lon="6.6205">
        <ele>1191.4</ele>
        <time>2013-07-28T12:14:14Z</time>
      </trkpt>
      <trkpt lat="43.74982" lon="6.62055">
        <ele>1189.78</ele>
        <time>2013-07-28T12:14:29Z</time>
      </trkpt>
      <trkpt lat="43.74973" lon="6.62056">
        <ele>1187.64</ele>
        <time>2013-07-28T12:14:53Z</time>
      </trkpt>
      <trkpt lat="43.74963" lon="6.62062">
        <ele>1187.14</ele>
        <time>2013-07-28T12:15:05Z</time>
      </trkpt>
      <trkpt lat="43.74952" lon="6.6206">
        <ele>1185.88</ele>
        <time>2013-07-28T12:15:23Z</time>
      </trkpt>
      <trkpt lat="43.74942" lon="6.62059">
        <ele>1185.17</ele>
        <time>2013-07-28T12:15:38Z</time>
      </trkpt>
      <trkpt lat="43.74931" lon="6.62059">
        <ele>1185.08</ele>
        <time>2013-07-28T12:15:56Z</time>
      </trkpt>
      <trkpt lat="43.74922" lon="6.62054">
        <ele>1184.45</ele>
        <time>2013-07-28T12:16:11Z</time>
      </trkpt>
      <trkpt lat="43.74913" lon="6.62049">
        <ele>1182.69</ele>
        <time>2013-07-28T12:16:23Z</time>
      </trkpt>
      <trkpt lat="43.74903" lon="6.62048">
        <ele>1179.32</ele>
        <time>2013-07-28T12:16:47Z</time>
      </trkpt>
      <trkpt lat="43.74893" lon="6.62045">
        <ele>1176.87</ele>
        <time>2013-07-28T12:17:11Z</time>
      </trkpt>
      <trkpt lat="43.74883" lon="6.62046">
        <ele>1174.92</ele>
        <time>2013-07-28T12:17:38Z</time>
      </trkpt>
      <trkpt lat="43.74872" lon="6.62045">
        <ele>1174.16</ele>
        <time>2013-07-28T12:17:56Z</time>
      </trkpt>
      <trkpt lat="43.74864" lon="6.62041">
        <ele>1173.62</ele>
        <time>2013-07-28T12:18:08Z</time>
      </trkpt>
      <trkpt lat="43.74856" lon="6.62035">
        <ele>1172.9</ele>
        <time>2013-07-28T12:18:20Z</time>
      </trkpt>
      <trkpt lat="43.74861" lon="6.62046">
        <ele>1170.76</ele>
        <time>2013-07-28T12:18:53Z</time>
      </trkpt>
      <trkpt lat="43.74871" lon="6.62055">
        <ele>1170.51</ele>
        <time>2013-07-28T12:19:09Z</time>
      </trkpt>
      <trkpt lat="43.74878" lon="6.62062">
        <ele>1170.27</ele>
        <time>2013-07-28T12:19:21Z</time>
      </trkpt>
      <trkpt lat="43.74887" lon="6.6207">
        <ele>1170.48</ele>
        <time>2013-07-28T12:19:39Z</time>
      </trkpt>
      <trkpt lat="43.74895" lon="6.62074">
        <ele>1170.69</ele>
        <time>2013-07-28T12:19:51Z</time>
      </trkpt>
      <trkpt lat="43.74905" lon="6.62077">
        <ele>1170.39</ele>
        <time>2013-07-28T12:20:00Z</time>
      </trkpt>
      <trkpt lat="43.74913" lon="6.62081">
        <ele>1169.78</ele>
        <time>2013-07-28T12:20:15Z</time>
      </trkpt>
      <trkpt lat="43.74919" lon="6.62092">
        <ele>1169.08</ele>
        <time>2013-07-28T12:20:27Z</time>
      </trkpt>
      <trkpt lat="43.74921" lon="6.62104">
        <ele>1168.69</ele>
        <time>2013-07-28T12:20:39Z</time>
      </trkpt>
      <trkpt lat="43.74922" lon="6.62117">
        <ele>1168.3</ele>
        <time>2013-07-28T12:20:51Z</time>
      </trkpt>
      <trkpt lat="43.74928" lon="6.62131">
        <ele>1166.65</ele>
        <time>2013-07-28T12:21:08Z</time>
      </trkpt>
      <trkpt lat="43.74936" lon="6.62141">
        <ele>1164.42</ele>
        <time>2013-07-28T12:21:23Z</time>
      </trkpt>
      <trkpt lat="43.74944" lon="6.62148">
        <ele>1162.49</ele>
        <time>2013-07-28T12:21:35Z</time>
      </trkpt>
      <trkpt lat="43.74953" lon="6.6215">
        <ele>1160.53</ele>
        <time>2013-07-28T12:21:47Z</time>
      </trkpt>
      <trkpt lat="43.74962" lon="6.62149">
        <ele>1158.68</ele>
        <time>2013-07-28T12:22:02Z</time>
      </trkpt>
      <trkpt lat="43.74974" lon="6.62148">
        <ele>1158.01</ele>
        <time>2013-07-28T12:22:14Z</time>
      </trkpt>
      <trkpt lat="43.74982" lon="6.62153">
        <ele>1157.95</ele>
        <time>2013-07-28T12:22:23Z</time>
      </trkpt>
      <trkpt lat="43.74993" lon="6.6216">
        <ele>1157.42</ele>
        <time>2013-07-28T12:22:35Z</time>
      </trkpt>
      <trkpt lat="43.75001" lon="6.62167">
        <ele>1156.15</ele>
        <time>2013-07-28T12:22:44Z</time>
      </trkpt>
      <trkpt lat="43.75009" lon="6.62175">
        <ele>1154.93</ele>
        <time>2013-07-28T12:22:53Z</time>
      </trkpt>
      <trkpt lat="43.7502" lon="6.62181">
        <ele>1154.05</ele>
        <time>2013-07-28T12:23:08Z</time>
      </trkpt>
      <trkpt lat="43.75029" lon="6.6218">
        <ele>1154</ele>
        <time>2013-07-28T12:23:17Z</time>
      </trkpt>
      <trkpt lat="43.75038" lon="6.62182">
        <ele>1154.03</ele>
        <time>2013-07-28T12:23:29Z</time>
      </trkpt>
      <trkpt lat="43.75048" lon="6.62187">
        <ele>1153.76</ele>
        <time>2013-07-28T12:23:38Z</time>
      </trkpt>
      <trkpt lat="43.75055" lon="6.62194">
        <ele>1153.62</ele>
        <time>2013-07-28T12:23:50Z</time>
      </trkpt>
      <trkpt lat="43.75066" lon="6.62198">
        <ele>1152.81</ele>
        <time>2013-07-28T12:24:08Z</time>
      </trkpt>
      <trkpt lat="43.75074" lon="6.62204">
        <ele>1152.26</ele>
        <time>2013-07-28T12:24:23Z</time>
      </trkpt>
      <trkpt lat="43.75084" lon="6.62209">
        <ele>1151.59</ele>
        <time>2013-07-28T12:24:32Z</time>
      </trkpt>
      <trkpt lat="43.75095" lon="6.62214">
        <ele>1150.39</ele>
        <time>2013-07-28T12:24:44Z</time>
      </trkpt>
      <trkpt lat="43.75105" lon="6.62216">
        <ele>1149.65</ele>
        <time>2013-07-28T12:24:53Z</time>
      </trkpt>
      <trkpt lat="43.75116" lon="6.62221">
        <ele>1148.71</ele>
        <time>2013-07-28T12:25:23Z</time>
      </trkpt>
      <trkpt lat="43.75125" lon="6.62227">
        <ele>1148.11</ele>
        <time>2013-07-28T12:25:35Z</time>
      </trkpt>
      <trkpt lat="43.75133" lon="6.62231">
        <ele>1147.51</ele>
        <time>2013-07-28T12:25:44Z</time>
      </trkpt>
      <trkpt lat="43.75142" lon="6.62235">
        <ele>1146.84</ele>
        <time>2013-07-28T12:25:53Z</time>
      </trkpt>
      <trkpt lat="43.75131" lon="6.62227">
        <ele>1140.23</ele>
        <time>2013-07-28T12:27:35Z</time>
      </trkpt>
      <trkpt lat="43.75139" lon="6.62234">
        <ele>1139.8</ele>
        <time>2013-07-28T12:27:41Z</time>
      </trkpt>
      <trkpt lat="43.75151" lon="6.62239">
        <ele>1139.3</ele>
        <time>2013-07-28T12:27:53Z</time>
      </trkpt>
      <trkpt lat="43.75161" lon="6.62248">
        <ele>1139.58</ele>
        <time>2013-07-28T12:28:02Z</time>
      </trkpt>
      <trkpt lat="43.75171" lon="6.6225">
        <ele>1140.54</ele>
        <time>2013-07-28T12:28:20Z</time>
      </trkpt>
      <trkpt lat="43.75177" lon="6.62259">
        <ele>1139.59</ele>
        <time>2013-07-28T12:28:38Z</time>
      </trkpt>
      <trkpt lat="43.75185" lon="6.62267">
        <ele>1138.1</ele>
        <time>2013-07-28T12:28:50Z</time>
      </trkpt>
      <trkpt lat="43.75194" lon="6.62276">
        <ele>1136.23</ele>
        <time>2013-07-28T12:29:02Z</time>
      </trkpt>
      <trkpt lat="43.75197" lon="6.62292">
        <ele>1135.07</ele>
        <time>2013-07-28T12:29:17Z</time>
      </trkpt>
      <trkpt lat="43.75201" lon="6.62304">
        <ele>1134.11</ele>
        <time>2013-07-28T12:29:26Z</time>
      </trkpt>
      <trkpt lat="43.75211" lon="6.62314">
        <ele>1133.62</ele>
        <time>2013-07-28T12:29:38Z</time>
      </trkpt>
      <trkpt lat="43.75217" lon="6.62327">
        <ele>1133.12</ele>
        <time>2013-07-28T12:29:50Z</time>
      </trkpt>
      <trkpt lat="43.75223" lon="6.62337">
        <ele>1133.05</ele>
        <time>2013-07-28T12:30:02Z</time>
      </trkpt>
      <trkpt lat="43.7523" lon="6.62346">
        <ele>1132.54</ele>
        <time>2013-07-28T12:30:17Z</time>
      </trkpt>
      <trkpt lat="43.75239" lon="6.62355">
        <ele>1131.48</ele>
        <time>2013-07-28T12:30:29Z</time>
      </trkpt>
      <trkpt lat="43.75246" lon="6.62363">
        <ele>1130.65</ele>
        <time>2013-07-28T12:30:41Z</time>
      </trkpt>
      <trkpt lat="43.75255" lon="6.62369">
        <ele>1130.38</ele>
        <time>2013-07-28T12:30:53Z</time>
      </trkpt>
      <trkpt lat="43.75264" lon="6.62371">
        <ele>1129.9</ele>
        <time>2013-07-28T12:31:05Z</time>
      </trkpt>
      <trkpt lat="43.75274" lon="6.62371">
        <ele>1128.26</ele>
        <time>2013-07-28T12:31:20Z</time>
      </trkpt>
      <trkpt lat="43.75283" lon="6.62366">
        <ele>1127.56</ele>
        <time>2013-07-28T12:31:32Z</time>
      </trkpt>
      <trkpt lat="43.75292" lon="6.62364">
        <ele>1127.43</ele>
        <time>2013-07-28T12:31:41Z</time>
      </trkpt>
      <trkpt lat="43.75301" lon="6.62369">
        <ele>1127.29</ele>
        <time>2013-07-28T12:31:59Z</time>
      </trkpt>
      <trkpt lat="43.75292" lon="6.62374">
        <ele>1124.95</ele>
        <time>2013-07-28T12:32:20Z</time>
      </trkpt>
      <trkpt lat="43.75284" lon="6.6238">
        <ele>1123.61</ele>
        <time>2013-07-28T12:32:29Z</time>
      </trkpt>
      <trkpt lat="43.75277" lon="6.62391">
        <ele>1121.82</ele>
        <time>2013-07-28T12:32:44Z</time>
      </trkpt>
      <trkpt lat="43.75269" lon="6.62397">
        <ele>1120.85</ele>
        <time>2013-07-28T12:32:56Z</time>
      </trkpt>
      <trkpt lat="43.7526" lon="6.62406">
        <ele>1119.76</ele>
        <time>2013-07-28T12:33:05Z</time>
      </trkpt>
      <trkpt lat="43.75252" lon="6.62411">
        <ele>1118.18</ele>
        <time>2013-07-28T12:33:23Z</time>
      </trkpt>
      <trkpt lat="43.75242" lon="6.62417">
        <ele>1117.15</ele>
        <time>2013-07-28T12:33:38Z</time>
      </trkpt>
      <trkpt lat="43.75231" lon="6.62418">
        <ele>1115.88</ele>
        <time>2013-07-28T12:33:47Z</time>
      </trkpt>
      <trkpt lat="43.75219" lon="6.6242">
        <ele>1114.1</ele>
        <time>2013-07-28T12:33:59Z</time>
      </trkpt>
      <trkpt lat="43.75209" lon="6.62424">
        <ele>1113.21</ele>
        <time>2013-07-28T12:34:11Z</time>
      </trkpt>
      <trkpt lat="43.75201" lon="6.6243">
        <ele>1113.1</ele>
        <time>2013-07-28T12:34:23Z</time>
      </trkpt>
      <trkpt lat="43.75191" lon="6.62435">
        <ele>1112.32</ele>
        <time>2013-07-28T12:34:38Z</time>
      </trkpt>
      <trkpt lat="43.75184" lon="6.62443">
        <ele>1111.02</ele>
        <time>2013-07-28T12:34:50Z</time>
      </trkpt>
      <trkpt lat="43.75176" lon="6.62452">
        <ele>1109.49</ele>
        <time>2013-07-28T12:35:05Z</time>
      </trkpt>
      <trkpt lat="43.7517" lon="6.62462">
        <ele>1108.68</ele>
        <time>2013-07-28T12:35:14Z</time>
      </trkpt>
      <trkpt lat="43.75166" lon="6.62474">
        <ele>1107.26</ele>
        <time>2013-07-28T12:35:29Z</time>
      </trkpt>
      <trkpt lat="43.75163" lon="6.62488">
        <ele>1105.98</ele>
        <time>2013-07-28T12:35:44Z</time>
      </trkpt>
      <trkpt lat="43.75172" lon="6.62499">
        <ele>1105.62</ele>
        <time>2013-07-28T12:35:53Z</time>
      </trkpt>
      <trkpt lat="43.75179" lon="6.62509">
        <ele>1104.87</ele>
        <time>2013-07-28T12:36:05Z</time>
      </trkpt>
      <trkpt lat="43.75185" lon="6.62523">
        <ele>1103.89</ele>
        <time>2013-07-28T12:36:20Z</time>
      </trkpt>
      <trkpt lat="43.75185" lon="6.62537">
        <ele>1102.06</ele>
        <time>2013-07-28T12:36:50Z</time>
      </trkpt>
      <trkpt lat="43.75189" lon="6.62552">
        <ele>1100.39</ele>
        <time>2013-07-28T12:37:02Z</time>
      </trkpt>
      <trkpt lat="43.75191" lon="6.62564">
        <ele>1098.69</ele>
        <time>2013-07-28T12:37:11Z</time>
      </trkpt>
      <trkpt lat="43.75189" lon="6.62577">
        <ele>1096.56</ele>
        <time>2013-07-28T12:37:23Z</time>
      </trkpt>
      <trkpt lat="43.75188" lon="6.62591">
        <ele>1095.16</ele>
        <time>2013-07-28T12:37:32Z</time>
      </trkpt>
      <trkpt lat="43.75184" lon="6.62602">
        <ele>1093.62</ele>
        <time>2013-07-28T12:37:44Z</time>
      </trkpt>
      <trkpt lat="43.7518" lon="6.62614">
        <ele>1092.76</ele>
        <time>2013-07-28T12:37:56Z</time>
      </trkpt>
      <trkpt lat="43.75178" lon="6.62628">
        <ele>1092.41</ele>
        <time>2013-07-28T12:38:08Z</time>
      </trkpt>
      <trkpt lat="43.75179" lon="6.62641">
        <ele>1092.25</ele>
        <time>2013-07-28T12:38:20Z</time>
      </trkpt>
      <trkpt lat="43.75176" lon="6.62652">
        <ele>1092.31</ele>
        <time>2013-07-28T12:38:32Z</time>
      </trkpt>
      <trkpt lat="43.75169" lon="6.62661">
        <ele>1091.66</ele>
        <time>2013-07-28T12:38:41Z</time>
      </trkpt>
      <trkpt lat="43.75165" lon="6.62675">
        <ele>1090.98</ele>
        <time>2013-07-28T12:38:53Z</time>
      </trkpt>
      <trkpt lat="43.75162" lon="6.6269">
        <ele>1091.1</ele>
        <time>2013-07-28T12:39:08Z</time>
      </trkpt>
      <trkpt lat="43.7516" lon="6.62703">
        <ele>1091.02</ele>
        <time>2013-07-28T12:39:20Z</time>
      </trkpt>
      <trkpt lat="43.75157" lon="6.62714">
        <ele>1090.55</ele>
        <time>2013-07-28T12:39:32Z</time>
      </trkpt>
      <trkpt lat="43.75155" lon="6.62727">
        <ele>1089.33</ele>
        <time>2013-07-28T12:39:44Z</time>
      </trkpt>
      <trkpt lat="43.75157" lon="6.62739">
        <ele>1088.09</ele>
        <time>2013-07-28T12:39:56Z</time>
      </trkpt>
      <trkpt lat="43.7516" lon="6.62752">
        <ele>1087.31</ele>
        <time>2013-07-28T12:40:05Z</time>
      </trkpt>
      <trkpt lat="43.75164" lon="6.62766">
        <ele>1086.73</ele>
        <time>2013-07-28T12:40:14Z</time>
      </trkpt>
      <trkpt lat="43.75165" lon="6.62779">
        <ele>1085.84</ele>
        <time>2013-07-28T12:40:26Z</time>
      </trkpt>
      <trkpt lat="43.7516" lon="6.62791">
        <ele>1084.65</ele>
        <time>2013-07-28T12:40:38Z</time>
      </trkpt>
      <trkpt lat="43.75157" lon="6.62803">
        <ele>1083.57</ele>
        <time>2013-07-28T12:40:47Z</time>
      </trkpt>
    </trkseg>
  </trk>
</gpx>